VKG819 GVAC-EKYT
Flight info
| Callsign | VKG819 |
|---|---|
| Flight time | 6h 24m |
| Altitude | 37000 |
| Route | PINPO2A PINPO UW11 GUNET N857 BIPET Z27 ODEGI/N0476F360 N873 GDV N858 VASTO UN858 DIMSA/N0469F380 UN858 AKUDA DCT XAPAS DCT ELVAR DCT TOSDI N745 ZMR N873 DELOG DCT YURZI UL14 TEPRA UN867 RINSO UM184 PILIP UN6 TELTU/N0469F390 UM185 DIGSU N866 BANEM M604 GIVPO DCT TOPPA DCT OMIMA DCT ETVOK |
| Aircraft | A339/H-SDE1E2E3GHIJ1J3J4J7RWXYZ/LB2D1 |
Departure
| Time | 2026-04-21 16:05 |
|---|---|
| Airport | Amílcar Cabral International Airport (GVAC) |
Arrival
| Time | 2026-04-21 22:29 |
|---|---|
| Airport | Aalborg Airport (EKYT) |
| Time | Latitude | Longitude | Altitude | Speed | Heading |
|---|---|---|---|---|---|
| 2026-04-21 15:42 | 16.73560 | -22.94504 | 196 ft | 0 kts | 90° |
| 2026-04-21 15:55 | 16.73560 | -22.94506 | 196 ft | 2 kts | 90° |
| 2026-04-21 15:55 | 16.73560 | -22.94522 | 196 ft | 2 kts | 90° |
| 2026-04-21 15:55 | 16.73560 | -22.94537 | 196 ft | 2 kts | 90° |
| 2026-04-21 15:56 | 16.73560 | -22.94553 | 196 ft | 2 kts | 90° |
| 2026-04-21 15:56 | 16.73561 | -22.94569 | 196 ft | 2 kts | 107° |
| 2026-04-21 15:56 | 16.73568 | -22.94583 | 196 ft | 2 kts | 131° |
| 2026-04-21 15:56 | 16.73579 | -22.94593 | 196 ft | 2 kts | 153° |
| 2026-04-21 15:57 | 16.73593 | -22.94598 | 196 ft | 2 kts | 174° |
| 2026-04-21 15:57 | 16.73599 | -22.94598 | 196 ft | 1 kts | 180° |
| 2026-04-21 15:57 | 16.73601 | -22.94598 | 196 ft | 0 kts | 180° |
| 2026-04-21 16:00 | 16.73587 | -22.94598 | 196 ft | 4 kts | 179° |
| 2026-04-21 16:00 | 16.73538 | -22.94597 | 196 ft | 9 kts | 179° |
| 2026-04-21 16:00 | 16.73460 | -22.94596 | 196 ft | 13 kts | 179° |
| 2026-04-21 16:00 | 16.73357 | -22.94594 | 196 ft | 16 kts | 179° |
| 2026-04-21 16:01 | 16.73234 | -22.94592 | 196 ft | 18 kts | 179° |
| 2026-04-21 16:01 | 16.73120 | -22.94593 | 196 ft | 13 kts | 188° |
| 2026-04-21 16:01 | 16.73052 | -22.94657 | 195 ft | 13 kts | 234° |
| 2026-04-21 16:01 | 16.72959 | -22.94691 | 195 ft | 16 kts | 179° |
| 2026-04-21 16:02 | 16.72831 | -22.94690 | 194 ft | 19 kts | 179° |
| 2026-04-21 16:02 | 16.72693 | -22.94689 | 194 ft | 19 kts | 180° |
| 2026-04-21 16:02 | 16.72554 | -22.94688 | 193 ft | 19 kts | 179° |
| 2026-04-21 16:02 | 16.72444 | -22.94686 | 192 ft | 8 kts | 182° |
| 2026-04-21 16:03 | 16.72409 | -22.94723 | 192 ft | 9 kts | 257° |
| 2026-04-21 16:03 | 16.72404 | -22.94797 | 192 ft | 10 kts | 271° |
| 2026-04-21 16:03 | 16.72425 | -22.94871 | 191 ft | 11 kts | 322° |
| 2026-04-21 16:03 | 16.72521 | -22.94887 | 192 ft | 24 kts | 0° |
| 2026-04-21 16:04 | 16.72902 | -22.94889 | 194 ft | 84 kts | 0° |
| 2026-04-21 16:04 | 16.73683 | -22.94894 | 195 ft | 136 kts | 359° |
| 2026-04-21 16:04 | 16.74776 | -22.94909 | 214 ft | 175 kts | 4° |
| 2026-04-21 16:04 | 16.75994 | -22.94888 | 720 ft | 174 kts | 4° |
| 2026-04-21 16:05 | 16.77207 | -22.94865 | 1335 ft | 173 kts | 4° |
| 2026-04-21 16:05 | 16.78394 | -22.94850 | 1901 ft | 174 kts | 2° |
| 2026-04-21 16:05 | 16.79643 | -22.94852 | 2219 ft | 184 kts | 2° |
| 2026-04-21 16:05 | 16.80977 | -22.94853 | 2476 ft | 198 kts | 2° |
| 2026-04-21 16:06 | 16.82403 | -22.94850 | 2741 ft | 213 kts | 1° |
| 2026-04-21 16:06 | 16.83963 | -22.94836 | 3028 ft | 229 kts | 6° |
| 2026-04-21 16:06 | 16.85494 | -22.94297 | 3300 ft | 245 kts | 36° |
| 2026-04-21 16:06 | 16.86616 | -22.92915 | 3675 ft | 260 kts | 65° |
| 2026-04-21 16:07 | 16.87190 | -22.90438 | 4406 ft | 270 kts | 77° |
| 2026-04-21 16:07 | 16.87443 | -22.89128 | 4764 ft | 275 kts | 77° |
| 2026-04-21 16:07 | 16.87836 | -22.87153 | 5271 ft | 283 kts | 77° |
| 2026-04-21 16:07 | 16.88414 | -22.85202 | 5753 ft | 288 kts | 58° |
| 2026-04-21 16:08 | 16.91007 | -22.81977 | 6781 ft | 296 kts | 44° |
| 2026-04-21 16:08 | 16.92444 | -22.80409 | 7333 ft | 299 kts | 44° |
| 2026-04-21 16:08 | 16.93867 | -22.78823 | 7868 ft | 304 kts | 45° |
| 2026-04-21 16:09 | 16.95313 | -22.77172 | 8407 ft | 307 kts | 45° |
| 2026-04-21 16:09 | 16.96743 | -22.75512 | 8930 ft | 311 kts | 46° |
| 2026-04-21 16:09 | 16.98179 | -22.73827 | 9461 ft | 314 kts | 46° |
| 2026-04-21 16:09 | 16.99639 | -22.72104 | 9999 ft | 318 kts | 46° |
| 2026-04-21 16:10 | 17.01123 | -22.70347 | 10378 ft | 328 kts | 46° |
| 2026-04-21 16:10 | 17.02660 | -22.68525 | 10626 ft | 342 kts | 46° |
| 2026-04-21 16:10 | 17.04246 | -22.66643 | 10866 ft | 356 kts | 47° |
| 2026-04-21 16:10 | 17.05918 | -22.64655 | 11103 ft | 369 kts | 47° |
| 2026-04-21 16:11 | 17.07643 | -22.62605 | 11332 ft | 383 kts | 47° |
| 2026-04-21 16:11 | 17.09423 | -22.60487 | 11555 ft | 396 kts | 47° |
| 2026-04-21 16:11 | 17.11271 | -22.58288 | 11792 ft | 408 kts | 47° |
| 2026-04-21 16:11 | 17.13177 | -22.56018 | 12221 ft | 414 kts | 47° |
| 2026-04-21 16:12 | 17.15087 | -22.53742 | 12767 ft | 417 kts | 47° |
| 2026-04-21 16:12 | 17.16998 | -22.51462 | 13307 ft | 419 kts | 47° |
| 2026-04-21 16:12 | 17.18917 | -22.49172 | 13835 ft | 422 kts | 47° |
| 2026-04-21 16:12 | 17.20844 | -22.46875 | 14326 ft | 425 kts | 47° |
| 2026-04-21 16:13 | 17.22818 | -22.44521 | 14865 ft | 428 kts | 47° |
| 2026-04-21 16:13 | 17.24765 | -22.42196 | 15390 ft | 430 kts | 47° |
| 2026-04-21 16:13 | 17.26757 | -22.39818 | 15904 ft | 432 kts | 47° |
| 2026-04-21 16:13 | 17.28729 | -22.37465 | 16407 ft | 435 kts | 47° |
| 2026-04-21 16:14 | 17.30723 | -22.35082 | 16906 ft | 438 kts | 47° |
| 2026-04-21 16:14 | 17.32749 | -22.32661 | 17380 ft | 441 kts | 47° |
| 2026-04-21 16:14 | 17.34773 | -22.30242 | 17851 ft | 444 kts | 46° |
| 2026-04-21 16:14 | 17.36804 | -22.27811 | 18297 ft | 446 kts | 46° |
| 2026-04-21 16:15 | 17.38858 | -22.25353 | 18726 ft | 449 kts | 46° |
| 2026-04-21 16:15 | 17.40895 | -22.22915 | 19123 ft | 452 kts | 46° |
| 2026-04-21 16:15 | 17.42979 | -22.20419 | 19529 ft | 455 kts | 46° |
| 2026-04-21 16:15 | 17.45061 | -22.17925 | 19921 ft | 457 kts | 45° |
| 2026-04-21 16:16 | 17.47155 | -22.15418 | 20293 ft | 460 kts | 45° |
| 2026-04-21 16:16 | 17.49286 | -22.12864 | 20644 ft | 462 kts | 45° |
| 2026-04-21 16:16 | 17.51394 | -22.10338 | 20984 ft | 465 kts | 45° |
| 2026-04-21 16:16 | 17.53534 | -22.07771 | 21320 ft | 467 kts | 44° |
| 2026-04-21 16:17 | 17.55668 | -22.05210 | 21641 ft | 470 kts | 44° |
| 2026-04-21 16:17 | 17.57805 | -22.02647 | 21933 ft | 472 kts | 44° |
| 2026-04-21 16:17 | 17.59971 | -22.00048 | 22238 ft | 474 kts | 44° |
| 2026-04-21 16:17 | 17.61981 | -21.97632 | 22536 ft | 476 kts | 44° |
| 2026-04-21 16:18 | 17.64102 | -21.95085 | 22818 ft | 479 kts | 44° |
| 2026-04-21 16:18 | 17.66347 | -21.92486 | 23133 ft | 479 kts | 41° |
| 2026-04-21 16:18 | 17.68642 | -21.89916 | 23445 ft | 481 kts | 41° |
| 2026-04-21 16:18 | 17.70928 | -21.87372 | 23760 ft | 483 kts | 41° |
| 2026-04-21 16:19 | 17.73241 | -21.84801 | 24081 ft | 485 kts | 41° |
| 2026-04-21 16:19 | 17.75558 | -21.82221 | 24354 ft | 488 kts | 41° |
| 2026-04-21 16:19 | 17.77892 | -21.79622 | 24635 ft | 491 kts | 41° |
| 2026-04-21 16:19 | 17.80241 | -21.77003 | 24918 ft | 494 kts | 41° |
| 2026-04-21 16:20 | 17.82614 | -21.74356 | 25211 ft | 496 kts | 41° |
| 2026-04-21 16:20 | 17.84948 | -21.71747 | 25473 ft | 499 kts | 41° |
| 2026-04-21 16:20 | 17.87332 | -21.69082 | 25752 ft | 501 kts | 41° |
| 2026-04-21 16:20 | 17.89722 | -21.66407 | 26027 ft | 503 kts | 40° |
| 2026-04-21 16:21 | 17.92126 | -21.63718 | 26312 ft | 505 kts | 40° |
| 2026-04-21 16:21 | 17.94519 | -21.61041 | 26555 ft | 507 kts | 41° |
| 2026-04-21 16:21 | 17.96941 | -21.58329 | 26804 ft | 510 kts | 40° |
| 2026-04-21 16:21 | 17.99389 | -21.55587 | 27052 ft | 512 kts | 40° |
| 2026-04-21 16:22 | 18.01809 | -21.52875 | 27323 ft | 514 kts | 40° |
| 2026-04-21 16:22 | 18.04265 | -21.50121 | 27605 ft | 515 kts | 40° |
| 2026-04-21 16:22 | 18.06726 | -21.47359 | 27973 ft | 514 kts | 40° |
| 2026-04-21 16:22 | 18.09163 | -21.44621 | 28365 ft | 513 kts | 40° |
| 2026-04-21 16:23 | 18.11577 | -21.41907 | 28755 ft | 512 kts | 40° |
| 2026-04-21 16:23 | 18.13988 | -21.39199 | 29168 ft | 510 kts | 40° |
| 2026-04-21 16:23 | 18.16414 | -21.36475 | 29510 ft | 510 kts | 40° |
| 2026-04-21 16:23 | 18.18861 | -21.33727 | 29774 ft | 512 kts | 40° |
| 2026-04-21 16:24 | 18.21304 | -21.30981 | 30026 ft | 514 kts | 40° |
| 2026-04-21 16:24 | 18.23733 | -21.28249 | 30323 ft | 514 kts | 40° |
| 2026-04-21 16:24 | 18.26148 | -21.25529 | 30660 ft | 513 kts | 40° |
| 2026-04-21 16:24 | 18.28605 | -21.22761 | 31012 ft | 512 kts | 40° |
| 2026-04-21 16:25 | 18.31040 | -21.20018 | 31301 ft | 513 kts | 40° |
| 2026-04-21 16:25 | 18.33457 | -21.17293 | 31541 ft | 514 kts | 40° |
| 2026-04-21 16:25 | 18.35909 | -21.14530 | 31820 ft | 515 kts | 40° |
| 2026-04-21 16:25 | 18.38332 | -21.11798 | 32118 ft | 515 kts | 40° |
| 2026-04-21 16:26 | 18.40772 | -21.09040 | 32435 ft | 514 kts | 40° |
| 2026-04-21 16:26 | 18.43234 | -21.06261 | 32734 ft | 514 kts | 40° |
| 2026-04-21 16:26 | 18.45655 | -21.03527 | 33025 ft | 515 kts | 40° |
| 2026-04-21 16:26 | 18.48094 | -21.00770 | 33356 ft | 515 kts | 40° |
| 2026-04-21 16:27 | 18.50534 | -20.98011 | 33703 ft | 514 kts | 40° |
| 2026-04-21 16:27 | 18.52962 | -20.95263 | 34049 ft | 513 kts | 40° |
| 2026-04-21 16:27 | 18.55406 | -20.92496 | 34419 ft | 512 kts | 40° |
| 2026-04-21 16:27 | 18.57824 | -20.89759 | 34767 ft | 511 kts | 40° |
| 2026-04-21 16:28 | 18.60218 | -20.87043 | 35128 ft | 509 kts | 39° |
| 2026-04-21 16:28 | 18.62616 | -20.84325 | 35474 ft | 508 kts | 40° |
| 2026-04-21 16:28 | 18.65038 | -20.81582 | 35718 ft | 508 kts | 40° |
| 2026-04-21 16:28 | 18.67446 | -20.78851 | 35912 ft | 510 kts | 39° |
| 2026-04-21 16:29 | 18.69857 | -20.76119 | 36122 ft | 511 kts | 39° |
| 2026-04-21 16:29 | 18.72270 | -20.73382 | 36272 ft | 513 kts | 39° |
| 2026-04-21 16:29 | 18.74695 | -20.70630 | 36432 ft | 514 kts | 39° |
| 2026-04-21 16:29 | 18.77136 | -20.67857 | 36628 ft | 515 kts | 39° |
| 2026-04-21 16:30 | 18.79558 | -20.65103 | 36826 ft | 516 kts | 39° |
| 2026-04-21 16:30 | 18.82013 | -20.62309 | 36934 ft | 518 kts | 39° |
| 2026-04-21 16:30 | 18.84445 | -20.59542 | 36935 ft | 518 kts | 39° |
| 2026-04-21 16:31 | 18.89364 | -20.53939 | 36940 ft | 517 kts | 39° |
| 2026-04-21 16:31 | 18.94244 | -20.48375 | 36939 ft | 517 kts | 39° |
| 2026-04-21 16:32 | 18.99105 | -20.42833 | 36942 ft | 517 kts | 39° |
| 2026-04-21 16:32 | 19.03991 | -20.37249 | 36944 ft | 515 kts | 39° |
| 2026-04-21 16:33 | 19.08617 | -20.31967 | 36936 ft | 516 kts | 39° |
| 2026-04-21 16:33 | 19.13479 | -20.26411 | 36934 ft | 517 kts | 39° |
| 2026-04-21 16:34 | 19.18372 | -20.20805 | 36936 ft | 515 kts | 39° |
| 2026-04-21 16:34 | 19.23228 | -20.15237 | 36938 ft | 515 kts | 39° |
| 2026-04-21 16:35 | 19.28064 | -20.09691 | 36937 ft | 514 kts | 39° |
| 2026-04-21 16:35 | 19.32898 | -20.04145 | 36945 ft | 514 kts | 39° |
| 2026-04-21 16:36 | 19.37750 | -19.98565 | 36948 ft | 512 kts | 39° |
| 2026-04-21 16:36 | 19.42571 | -19.93021 | 36948 ft | 514 kts | 39° |
| 2026-04-21 16:37 | 19.47403 | -19.87457 | 36948 ft | 514 kts | 39° |
| 2026-04-21 16:37 | 19.52238 | -19.81884 | 36948 ft | 513 kts | 39° |
| 2026-04-21 16:38 | 19.57239 | -19.76567 | 36948 ft | 506 kts | 33° |
| 2026-04-21 16:38 | 19.62677 | -19.71946 | 36947 ft | 496 kts | 26° |
| 2026-04-21 16:39 | 19.68479 | -19.68066 | 36949 ft | 494 kts | 20° |
| 2026-04-21 16:39 | 19.74465 | -19.64499 | 36948 ft | 498 kts | 20° |
| 2026-04-21 16:40 | 19.80543 | -19.60879 | 36950 ft | 499 kts | 20° |
| 2026-04-21 16:40 | 19.86583 | -19.57262 | 36947 ft | 498 kts | 20° |
| 2026-04-21 16:41 | 19.92612 | -19.53643 | 36950 ft | 498 kts | 20° |
| 2026-04-21 16:41 | 19.98629 | -19.50027 | 36948 ft | 497 kts | 20° |
| 2026-04-21 16:42 | 20.04670 | -19.46394 | 36949 ft | 498 kts | 20° |
| 2026-04-21 16:42 | 20.10719 | -19.42749 | 36949 ft | 497 kts | 20° |
| 2026-04-21 16:43 | 20.16717 | -19.39134 | 36949 ft | 497 kts | 20° |
| 2026-04-21 16:43 | 20.22726 | -19.35510 | 36947 ft | 497 kts | 20° |
| 2026-04-21 16:44 | 20.28753 | -19.31870 | 36945 ft | 498 kts | 20° |
| 2026-04-21 16:44 | 20.34791 | -19.28222 | 36942 ft | 498 kts | 20° |
| 2026-04-21 16:45 | 20.40809 | -19.24580 | 36940 ft | 498 kts | 20° |
| 2026-04-21 16:45 | 20.46850 | -19.20925 | 36940 ft | 498 kts | 20° |
| 2026-04-21 16:46 | 20.52865 | -19.17280 | 36940 ft | 496 kts | 19° |
| 2026-04-21 16:46 | 20.58852 | -19.13648 | 36941 ft | 497 kts | 19° |
| 2026-04-21 16:47 | 20.64850 | -19.10008 | 36941 ft | 497 kts | 19° |
| 2026-04-21 16:47 | 20.70877 | -19.06346 | 36940 ft | 496 kts | 19° |
| 2026-04-21 16:48 | 20.76564 | -19.02887 | 36941 ft | 497 kts | 19° |
| 2026-04-21 16:48 | 20.82575 | -18.99228 | 36943 ft | 496 kts | 19° |
| 2026-04-21 16:49 | 20.88576 | -18.95570 | 36943 ft | 495 kts | 19° |
| 2026-04-21 16:49 | 20.94541 | -18.91933 | 36935 ft | 495 kts | 19° |
| 2026-04-21 16:50 | 21.00541 | -18.88271 | 36929 ft | 495 kts | 19° |
| 2026-04-21 16:50 | 21.06494 | -18.84633 | 36931 ft | 494 kts | 19° |
| 2026-04-21 16:51 | 21.12489 | -18.80966 | 36934 ft | 492 kts | 18° |
| 2026-04-21 16:51 | 21.18452 | -18.77318 | 36934 ft | 493 kts | 19° |
| 2026-04-21 16:52 | 21.24380 | -18.73687 | 36933 ft | 494 kts | 18° |
| 2026-04-21 16:52 | 21.30340 | -18.70030 | 36935 ft | 492 kts | 18° |
| 2026-04-21 16:53 | 21.36278 | -18.66384 | 36936 ft | 492 kts | 18° |
| 2026-04-21 16:53 | 21.42232 | -18.62726 | 36937 ft | 491 kts | 18° |
| 2026-04-21 16:54 | 21.48163 | -18.59075 | 36937 ft | 493 kts | 18° |
| 2026-04-21 16:54 | 21.54081 | -18.55428 | 36937 ft | 491 kts | 18° |
| 2026-04-21 16:55 | 21.60011 | -18.51774 | 36937 ft | 490 kts | 18° |
| 2026-04-21 16:55 | 21.65925 | -18.48125 | 36936 ft | 491 kts | 18° |
| 2026-04-21 16:56 | 21.71809 | -18.44491 | 36942 ft | 489 kts | 17° |
| 2026-04-21 16:56 | 21.77707 | -18.40845 | 36942 ft | 489 kts | 17° |
| 2026-04-21 16:57 | 21.83602 | -18.37197 | 36940 ft | 488 kts | 17° |
| 2026-04-21 16:57 | 21.89511 | -18.33537 | 36935 ft | 488 kts | 18° |
| 2026-04-21 16:58 | 21.95373 | -18.29904 | 36941 ft | 487 kts | 17° |
| 2026-04-21 16:58 | 22.01244 | -18.26260 | 36937 ft | 487 kts | 17° |
| 2026-04-21 16:59 | 22.07106 | -18.22619 | 36936 ft | 487 kts | 17° |
| 2026-04-21 16:59 | 22.12967 | -18.18973 | 36938 ft | 487 kts | 17° |
| 2026-04-21 17:00 | 22.18822 | -18.15330 | 36936 ft | 486 kts | 17° |
| 2026-04-21 17:00 | 22.23726 | -18.12277 | 36938 ft | 486 kts | 17° |
| 2026-04-21 17:01 | 22.30566 | -18.08011 | 36939 ft | 486 kts | 17° |
| 2026-04-21 17:01 | 22.36410 | -18.04362 | 36941 ft | 486 kts | 17° |
| 2026-04-21 17:02 | 22.42244 | -18.00717 | 36938 ft | 485 kts | 17° |
| 2026-04-21 17:02 | 22.48092 | -17.97060 | 36939 ft | 485 kts | 17° |
| 2026-04-21 17:03 | 22.53642 | -17.93586 | 36939 ft | 484 kts | 17° |
| 2026-04-21 17:03 | 22.59456 | -17.89942 | 36942 ft | 484 kts | 17° |
| 2026-04-21 17:04 | 22.65271 | -17.86295 | 36947 ft | 484 kts | 17° |
| 2026-04-21 17:04 | 22.71107 | -17.82630 | 36947 ft | 484 kts | 16° |
| 2026-04-21 17:05 | 22.76932 | -17.78968 | 36947 ft | 483 kts | 16° |
| 2026-04-21 17:05 | 22.82739 | -17.75316 | 36948 ft | 483 kts | 16° |
| 2026-04-21 17:06 | 22.88563 | -17.71648 | 36948 ft | 483 kts | 16° |
| 2026-04-21 17:06 | 22.94366 | -17.67991 | 36948 ft | 483 kts | 16° |
| 2026-04-21 17:07 | 23.00202 | -17.64310 | 36945 ft | 485 kts | 16° |
| 2026-04-21 17:07 | 23.06002 | -17.60643 | 36948 ft | 484 kts | 16° |
| 2026-04-21 17:08 | 23.11830 | -17.56959 | 36947 ft | 483 kts | 16° |
| 2026-04-21 17:08 | 23.17625 | -17.53292 | 36947 ft | 483 kts | 15° |
| 2026-04-21 17:09 | 23.26338 | -17.47769 | 36946 ft | 483 kts | 15° |
| 2026-04-21 17:09 | 23.32147 | -17.44083 | 36946 ft | 484 kts | 15° |
| 2026-04-21 17:10 | 23.37950 | -17.40396 | 36949 ft | 483 kts | 15° |
| 2026-04-21 17:10 | 23.43748 | -17.36711 | 36944 ft | 482 kts | 15° |
| 2026-04-21 17:11 | 23.49538 | -17.33023 | 36941 ft | 481 kts | 15° |
| 2026-04-21 17:11 | 23.55310 | -17.29349 | 36946 ft | 483 kts | 15° |
| 2026-04-21 17:12 | 23.61116 | -17.25649 | 36947 ft | 484 kts | 15° |
| 2026-04-21 17:12 | 23.66938 | -17.21927 | 36946 ft | 484 kts | 15° |
| 2026-04-21 17:13 | 23.72737 | -17.18221 | 36946 ft | 483 kts | 15° |
| 2026-04-21 17:13 | 23.78521 | -17.14515 | 36948 ft | 481 kts | 15° |
| 2026-04-21 17:14 | 23.84275 | -17.10832 | 36947 ft | 479 kts | 15° |
| 2026-04-21 17:14 | 23.90042 | -17.07136 | 36946 ft | 481 kts | 14° |
| 2026-04-21 17:15 | 23.95790 | -17.03447 | 36947 ft | 478 kts | 14° |
| 2026-04-21 17:15 | 24.01488 | -16.99785 | 36952 ft | 477 kts | 15° |
| 2026-04-21 17:16 | 24.07229 | -16.96097 | 36954 ft | 478 kts | 15° |
| 2026-04-21 17:16 | 24.12944 | -16.92419 | 36955 ft | 477 kts | 15° |
| 2026-04-21 17:17 | 24.18685 | -16.88720 | 36959 ft | 478 kts | 15° |
| 2026-04-21 17:17 | 24.24179 | -16.85176 | 36946 ft | 478 kts | 15° |
| 2026-04-21 17:18 | 24.29888 | -16.81489 | 36947 ft | 478 kts | 15° |
| 2026-04-21 17:18 | 24.35607 | -16.77792 | 36955 ft | 480 kts | 15° |
| 2026-04-21 17:19 | 24.41367 | -16.74064 | 36939 ft | 478 kts | 15° |
| 2026-04-21 17:19 | 24.47069 | -16.70367 | 36947 ft | 478 kts | 15° |
| 2026-04-21 17:20 | 24.52825 | -16.66637 | 36944 ft | 479 kts | 16° |
| 2026-04-21 17:20 | 24.58521 | -16.62937 | 36959 ft | 477 kts | 16° |
| 2026-04-21 17:21 | 24.64236 | -16.59225 | 36949 ft | 477 kts | 16° |
| 2026-04-21 17:21 | 24.69929 | -16.55521 | 36945 ft | 478 kts | 16° |
| 2026-04-21 17:22 | 24.75657 | -16.51788 | 36947 ft | 477 kts | 16° |
| 2026-04-21 17:22 | 24.81377 | -16.48056 | 36940 ft | 477 kts | 17° |
| 2026-04-21 17:23 | 24.87091 | -16.44331 | 36943 ft | 477 kts | 17° |
| 2026-04-21 17:23 | 24.92826 | -16.40677 | 36940 ft | 472 kts | 13° |
| 2026-04-21 17:24 | 24.98744 | -16.37899 | 36941 ft | 459 kts | 5° |
| 2026-04-21 17:24 | 25.04853 | -16.36175 | 36935 ft | 446 kts | 356° |
| 2026-04-21 17:25 | 25.10954 | -16.35470 | 36936 ft | 433 kts | 350° |
| 2026-04-21 17:25 | 25.16982 | -16.35235 | 36926 ft | 436 kts | 349° |
| 2026-04-21 17:26 | 25.23036 | -16.35023 | 36940 ft | 435 kts | 349° |
| 2026-04-21 17:26 | 25.29079 | -16.34808 | 36931 ft | 436 kts | 350° |
| 2026-04-21 17:27 | 25.35170 | -16.34592 | 36929 ft | 437 kts | 350° |
| 2026-04-21 17:27 | 25.41225 | -16.34374 | 36929 ft | 437 kts | 350° |
| 2026-04-21 17:28 | 25.47294 | -16.34154 | 36935 ft | 436 kts | 350° |
| 2026-04-21 17:28 | 25.53369 | -16.33936 | 36936 ft | 436 kts | 350° |
| 2026-04-21 17:29 | 25.59453 | -16.33719 | 36932 ft | 438 kts | 351° |
| 2026-04-21 17:29 | 25.65547 | -16.33500 | 36935 ft | 439 kts | 351° |
| 2026-04-21 17:30 | 25.71670 | -16.33278 | 36947 ft | 438 kts | 351° |
| 2026-04-21 17:30 | 25.77734 | -16.33059 | 36935 ft | 437 kts | 351° |
| 2026-04-21 17:31 | 25.83853 | -16.32840 | 36948 ft | 439 kts | 352° |
| 2026-04-21 17:31 | 25.89941 | -16.32620 | 36939 ft | 439 kts | 352° |
| 2026-04-21 17:32 | 25.96039 | -16.32397 | 36941 ft | 439 kts | 352° |
| 2026-04-21 17:32 | 26.01901 | -16.32187 | 36932 ft | 439 kts | 351° |
| 2026-04-21 17:33 | 26.07921 | -16.31969 | 36949 ft | 441 kts | 352° |
| 2026-04-21 17:33 | 26.14069 | -16.31745 | 36948 ft | 441 kts | 352° |
| 2026-04-21 17:34 | 26.20192 | -16.31523 | 36952 ft | 439 kts | 352° |
| 2026-04-21 17:34 | 26.26293 | -16.31298 | 36962 ft | 442 kts | 352° |
| 2026-04-21 17:35 | 26.32462 | -16.31076 | 36778 ft | 441 kts | 352° |
| 2026-04-21 17:35 | 26.35510 | -16.30969 | 36530 ft | 440 kts | 353° |
| 2026-04-21 17:35 | 26.38596 | -16.30857 | 36258 ft | 440 kts | 353° |
| 2026-04-21 17:36 | 26.41626 | -16.30749 | 36028 ft | 438 kts | 354° |
| 2026-04-21 17:36 | 26.44699 | -16.30638 | 35948 ft | 438 kts | 354° |
| 2026-04-21 17:36 | 26.50803 | -16.30411 | 35945 ft | 439 kts | 353° |
| 2026-04-21 17:37 | 26.56879 | -16.30188 | 35946 ft | 440 kts | 353° |
| 2026-04-21 17:37 | 26.63040 | -16.29965 | 35953 ft | 441 kts | 354° |
| 2026-04-21 17:38 | 26.69183 | -16.29740 | 35942 ft | 441 kts | 354° |
| 2026-04-21 17:38 | 26.75275 | -16.29518 | 35950 ft | 441 kts | 354° |
| 2026-04-21 17:39 | 26.81460 | -16.29170 | 35945 ft | 445 kts | 359° |
| 2026-04-21 17:39 | 26.87583 | -16.27873 | 35949 ft | 450 kts | 7° |
| 2026-04-21 17:40 | 26.93496 | -16.25513 | 35952 ft | 458 kts | 16° |
| 2026-04-21 17:40 | 26.99170 | -16.22045 | 35957 ft | 467 kts | 24° |
| 2026-04-21 17:41 | 27.04624 | -16.18121 | 35950 ft | 465 kts | 25° |
| 2026-04-21 17:41 | 27.10026 | -16.14200 | 35960 ft | 466 kts | 25° |
| 2026-04-21 17:42 | 27.15481 | -16.10250 | 35956 ft | 464 kts | 25° |
| 2026-04-21 17:42 | 27.20909 | -16.06319 | 35947 ft | 463 kts | 25° |
| 2026-04-21 17:43 | 27.26326 | -16.02396 | 35946 ft | 464 kts | 25° |
| 2026-04-21 17:43 | 27.31739 | -15.98471 | 35943 ft | 462 kts | 25° |
| 2026-04-21 17:44 | 27.37129 | -15.94556 | 35939 ft | 462 kts | 25° |
| 2026-04-21 17:44 | 27.42501 | -15.90652 | 35939 ft | 460 kts | 25° |
| 2026-04-21 17:45 | 27.47865 | -15.86751 | 35940 ft | 459 kts | 25° |
| 2026-04-21 17:45 | 27.53225 | -15.82849 | 35947 ft | 460 kts | 25° |
| 2026-04-21 17:46 | 27.58571 | -15.78948 | 35939 ft | 459 kts | 26° |
| 2026-04-21 17:46 | 27.63921 | -15.75042 | 35942 ft | 458 kts | 26° |
| 2026-04-21 17:47 | 27.69261 | -15.71140 | 35959 ft | 458 kts | 26° |
| 2026-04-21 17:47 | 27.74421 | -15.67359 | 35948 ft | 458 kts | 26° |
| 2026-04-21 17:48 | 27.79680 | -15.63507 | 35956 ft | 457 kts | 26° |
| 2026-04-21 17:48 | 27.84968 | -15.59629 | 35948 ft | 456 kts | 26° |
| 2026-04-21 17:49 | 27.90264 | -15.55738 | 35972 ft | 454 kts | 26° |
| 2026-04-21 17:49 | 27.95560 | -15.51845 | 35973 ft | 453 kts | 26° |
| 2026-04-21 17:50 | 28.00834 | -15.47964 | 35982 ft | 453 kts | 26° |
| 2026-04-21 17:50 | 28.06134 | -15.44058 | 35969 ft | 453 kts | 26° |
| 2026-04-21 17:51 | 28.11390 | -15.40169 | 35966 ft | 453 kts | 27° |
| 2026-04-21 17:51 | 28.16649 | -15.36258 | 35955 ft | 453 kts | 27° |
| 2026-04-21 17:52 | 28.21920 | -15.32336 | 35946 ft | 451 kts | 27° |
| 2026-04-21 17:52 | 28.27148 | -15.28445 | 35942 ft | 453 kts | 27° |
| 2026-04-21 17:53 | 28.32418 | -15.24517 | 35936 ft | 453 kts | 27° |
| 2026-04-21 17:53 | 28.37672 | -15.20597 | 35935 ft | 452 kts | 27° |
| 2026-04-21 17:54 | 28.42909 | -15.16683 | 35940 ft | 452 kts | 27° |
| 2026-04-21 17:54 | 28.48158 | -15.12758 | 35935 ft | 451 kts | 27° |
| 2026-04-21 17:55 | 28.53388 | -15.08841 | 35929 ft | 452 kts | 27° |
| 2026-04-21 17:55 | 28.58628 | -15.04913 | 35932 ft | 452 kts | 27° |
| 2026-04-21 17:56 | 28.63869 | -15.00978 | 35931 ft | 452 kts | 27° |
| 2026-04-21 17:56 | 28.69097 | -14.97048 | 35930 ft | 451 kts | 28° |
| 2026-04-21 17:57 | 28.74338 | -14.93105 | 35933 ft | 451 kts | 27° |
| 2026-04-21 17:57 | 28.79596 | -14.89143 | 35935 ft | 451 kts | 28° |
| 2026-04-21 17:58 | 28.84824 | -14.85201 | 35933 ft | 451 kts | 28° |
| 2026-04-21 17:58 | 28.90043 | -14.81258 | 35948 ft | 452 kts | 28° |
| 2026-04-21 17:59 | 28.95284 | -14.77294 | 35949 ft | 450 kts | 28° |
| 2026-04-21 17:59 | 29.00482 | -14.73356 | 35950 ft | 449 kts | 28° |
| 2026-04-21 18:00 | 29.05695 | -14.69405 | 35952 ft | 449 kts | 28° |
| 2026-04-21 18:00 | 29.10918 | -14.65443 | 35951 ft | 451 kts | 28° |
| 2026-04-21 18:01 | 29.16119 | -14.61492 | 35948 ft | 450 kts | 28° |
| 2026-04-21 18:01 | 29.21331 | -14.57523 | 35950 ft | 450 kts | 28° |
| 2026-04-21 18:02 | 29.26541 | -14.53553 | 35945 ft | 450 kts | 28° |
| 2026-04-21 18:02 | 29.31548 | -14.49734 | 35946 ft | 450 kts | 28° |
| 2026-04-21 18:03 | 29.36715 | -14.45788 | 35944 ft | 450 kts | 28° |
| 2026-04-21 18:03 | 29.41917 | -14.41811 | 35950 ft | 451 kts | 28° |
| 2026-04-21 18:04 | 29.47147 | -14.37807 | 35950 ft | 451 kts | 28° |
| 2026-04-21 18:04 | 29.52336 | -14.33827 | 35947 ft | 450 kts | 29° |
| 2026-04-21 18:05 | 29.57542 | -14.29832 | 35952 ft | 450 kts | 29° |
| 2026-04-21 18:05 | 29.62769 | -14.25816 | 35952 ft | 451 kts | 29° |
| 2026-04-21 18:06 | 29.67979 | -14.21806 | 35951 ft | 450 kts | 29° |
| 2026-04-21 18:06 | 29.73157 | -14.17817 | 35939 ft | 450 kts | 29° |
| 2026-04-21 18:07 | 29.78362 | -14.13803 | 35931 ft | 449 kts | 29° |
| 2026-04-21 18:07 | 29.83535 | -14.09807 | 35936 ft | 450 kts | 30° |
| 2026-04-21 18:08 | 29.88724 | -14.05792 | 35923 ft | 449 kts | 29° |
| 2026-04-21 18:08 | 29.93895 | -14.01788 | 35933 ft | 448 kts | 29° |
| 2026-04-21 18:09 | 29.99060 | -13.97784 | 35930 ft | 448 kts | 29° |
| 2026-04-21 18:09 | 30.04230 | -13.93770 | 35928 ft | 448 kts | 30° |
| 2026-04-21 18:10 | 30.09388 | -13.89761 | 35927 ft | 448 kts | 29° |
| 2026-04-21 18:10 | 30.14574 | -13.85725 | 35928 ft | 449 kts | 30° |
| 2026-04-21 18:11 | 30.19758 | -13.81684 | 35927 ft | 449 kts | 30° |
| 2026-04-21 18:11 | 30.24897 | -13.77675 | 35926 ft | 448 kts | 30° |
| 2026-04-21 18:12 | 30.30076 | -13.73627 | 35924 ft | 448 kts | 30° |
| 2026-04-21 18:12 | 30.35230 | -13.69597 | 35928 ft | 449 kts | 30° |
| 2026-04-21 18:13 | 30.40397 | -13.65550 | 35925 ft | 449 kts | 30° |
| 2026-04-21 18:13 | 30.45585 | -13.61481 | 35928 ft | 449 kts | 30° |
| 2026-04-21 18:14 | 30.53311 | -13.55399 | 35923 ft | 449 kts | 30° |
| 2026-04-21 18:15 | 30.58450 | -13.51308 | 35926 ft | 449 kts | 30° |
| 2026-04-21 18:15 | 30.63604 | -13.47199 | 35926 ft | 449 kts | 30° |
| 2026-04-21 18:16 | 30.68761 | -13.43086 | 35926 ft | 450 kts | 30° |
| 2026-04-21 18:16 | 30.73891 | -13.38991 | 35928 ft | 450 kts | 30° |
| 2026-04-21 18:17 | 30.79089 | -13.34837 | 36028 ft | 455 kts | 31° |
| 2026-04-21 18:17 | 30.81683 | -13.32762 | 36256 ft | 456 kts | 31° |
| 2026-04-21 18:17 | 30.84312 | -13.30656 | 36477 ft | 456 kts | 31° |
| 2026-04-21 18:17 | 30.86713 | -13.28732 | 36657 ft | 457 kts | 31° |
| 2026-04-21 18:18 | 30.89284 | -13.26670 | 36862 ft | 457 kts | 30° |
| 2026-04-21 18:18 | 30.91876 | -13.24590 | 37121 ft | 456 kts | 30° |
| 2026-04-21 18:18 | 30.94494 | -13.22503 | 37349 ft | 456 kts | 30° |
| 2026-04-21 18:18 | 30.97110 | -13.20425 | 37558 ft | 456 kts | 30° |
| 2026-04-21 18:19 | 30.99738 | -13.18339 | 37727 ft | 456 kts | 30° |
| 2026-04-21 18:19 | 31.02337 | -13.16274 | 37917 ft | 456 kts | 30° |
| 2026-04-21 18:19 | 31.04970 | -13.14180 | 37925 ft | 457 kts | 30° |
| 2026-04-21 18:20 | 31.10217 | -13.10002 | 37926 ft | 456 kts | 30° |
| 2026-04-21 18:20 | 31.15441 | -13.05835 | 37930 ft | 455 kts | 30° |
| 2026-04-21 18:21 | 31.20633 | -13.01688 | 37930 ft | 455 kts | 30° |
| 2026-04-21 18:21 | 31.25864 | -12.97506 | 37931 ft | 456 kts | 30° |
| 2026-04-21 18:22 | 31.31108 | -12.93307 | 37928 ft | 457 kts | 30° |
| 2026-04-21 18:22 | 31.36335 | -12.89114 | 37932 ft | 456 kts | 30° |
| 2026-04-21 18:23 | 31.41553 | -12.84922 | 37930 ft | 456 kts | 30° |
| 2026-04-21 18:23 | 31.46793 | -12.80709 | 37928 ft | 457 kts | 30° |
| 2026-04-21 18:24 | 31.52034 | -12.76489 | 37930 ft | 458 kts | 30° |
| 2026-04-21 18:24 | 31.57258 | -12.72275 | 37926 ft | 457 kts | 30° |
| 2026-04-21 18:25 | 31.62518 | -12.68030 | 37932 ft | 458 kts | 30° |
| 2026-04-21 18:25 | 31.67747 | -12.63801 | 37928 ft | 458 kts | 30° |
| 2026-04-21 18:26 | 31.72980 | -12.59562 | 37927 ft | 458 kts | 30° |
| 2026-04-21 18:26 | 31.78206 | -12.55325 | 37924 ft | 458 kts | 30° |
| 2026-04-21 18:27 | 31.83456 | -12.51062 | 37926 ft | 458 kts | 30° |
| 2026-04-21 18:27 | 31.88685 | -12.46811 | 37927 ft | 458 kts | 30° |
| 2026-04-21 18:28 | 31.93910 | -12.42559 | 37928 ft | 458 kts | 30° |
| 2026-04-21 18:28 | 31.99148 | -12.38291 | 37931 ft | 458 kts | 30° |
| 2026-04-21 18:29 | 32.04377 | -12.34033 | 37936 ft | 458 kts | 31° |
| 2026-04-21 18:29 | 32.09605 | -12.29772 | 37934 ft | 459 kts | 31° |
| 2026-04-21 18:30 | 32.14862 | -12.25483 | 37931 ft | 458 kts | 31° |
| 2026-04-21 18:30 | 32.20095 | -12.21208 | 37929 ft | 458 kts | 30° |
| 2026-04-21 18:31 | 32.25323 | -12.16934 | 37913 ft | 459 kts | 31° |
| 2026-04-21 18:31 | 32.30561 | -12.12642 | 37913 ft | 459 kts | 31° |
| 2026-04-21 18:32 | 32.35820 | -12.08328 | 37911 ft | 459 kts | 30° |
| 2026-04-21 18:32 | 32.41060 | -12.04021 | 37909 ft | 459 kts | 30° |
| 2026-04-21 18:33 | 32.46043 | -11.99921 | 37910 ft | 459 kts | 30° |
| 2026-04-21 18:33 | 32.51279 | -11.95609 | 37908 ft | 460 kts | 30° |
| 2026-04-21 18:34 | 32.56535 | -11.91274 | 37908 ft | 460 kts | 30° |
| 2026-04-21 18:34 | 32.61775 | -11.86942 | 37908 ft | 460 kts | 30° |
| 2026-04-21 18:35 | 32.67035 | -11.82586 | 37907 ft | 461 kts | 30° |
| 2026-04-21 18:35 | 32.72255 | -11.78264 | 37907 ft | 460 kts | 30° |
| 2026-04-21 18:36 | 32.77518 | -11.73897 | 37908 ft | 461 kts | 30° |
| 2026-04-21 18:36 | 32.82763 | -11.69537 | 37906 ft | 461 kts | 30° |
| 2026-04-21 18:37 | 32.87989 | -11.65188 | 37905 ft | 461 kts | 30° |
| 2026-04-21 18:37 | 32.93239 | -11.60811 | 37906 ft | 461 kts | 31° |
| 2026-04-21 18:38 | 32.98459 | -11.56456 | 37906 ft | 461 kts | 30° |
| 2026-04-21 18:38 | 33.03719 | -11.52057 | 37906 ft | 462 kts | 30° |
| 2026-04-21 18:39 | 33.08975 | -11.47658 | 37904 ft | 462 kts | 30° |
| 2026-04-21 18:39 | 33.14227 | -11.43257 | 37907 ft | 462 kts | 30° |
| 2026-04-21 18:40 | 33.19492 | -11.38827 | 37904 ft | 463 kts | 31° |
| 2026-04-21 18:40 | 33.24707 | -11.34402 | 37908 ft | 463 kts | 31° |
| 2026-04-21 18:41 | 33.29947 | -11.29952 | 37909 ft | 463 kts | 31° |
| 2026-04-21 18:41 | 33.35220 | -11.25470 | 37908 ft | 463 kts | 31° |
| 2026-04-21 18:42 | 33.40458 | -11.21010 | 37909 ft | 464 kts | 31° |
| 2026-04-21 18:42 | 33.45701 | -11.16540 | 37906 ft | 465 kts | 31° |
| 2026-04-21 18:43 | 33.50945 | -11.12064 | 37907 ft | 465 kts | 31° |
| 2026-04-21 18:43 | 33.56204 | -11.07568 | 37905 ft | 465 kts | 31° |
| 2026-04-21 18:44 | 33.61463 | -11.03065 | 37907 ft | 465 kts | 31° |
| 2026-04-21 18:44 | 33.66715 | -10.98560 | 37906 ft | 465 kts | 31° |
| 2026-04-21 18:45 | 33.71976 | -10.94043 | 37907 ft | 465 kts | 31° |
| 2026-04-21 18:45 | 33.77226 | -10.89525 | 37908 ft | 466 kts | 31° |
| 2026-04-21 18:46 | 33.82474 | -10.85006 | 37907 ft | 465 kts | 31° |
| 2026-04-21 18:46 | 33.87740 | -10.80461 | 37908 ft | 466 kts | 31° |
| 2026-04-21 18:47 | 33.92987 | -10.75927 | 37911 ft | 466 kts | 31° |
| 2026-04-21 18:47 | 33.98241 | -10.71380 | 37911 ft | 466 kts | 31° |
| 2026-04-21 18:48 | 34.03229 | -10.67056 | 37910 ft | 466 kts | 31° |
| 2026-04-21 18:48 | 34.08481 | -10.62496 | 37911 ft | 466 kts | 31° |
| 2026-04-21 18:49 | 34.13730 | -10.57933 | 37909 ft | 466 kts | 31° |
| 2026-04-21 18:49 | 34.18111 | -10.54118 | 37910 ft | 467 kts | 31° |
| 2026-04-21 18:50 | 34.24256 | -10.48759 | 37910 ft | 467 kts | 31° |
| 2026-04-21 18:50 | 34.29513 | -10.44165 | 37913 ft | 467 kts | 31° |
| 2026-04-21 18:51 | 34.34758 | -10.39578 | 37913 ft | 467 kts | 31° |
| 2026-04-21 18:51 | 34.40004 | -10.34981 | 37913 ft | 467 kts | 31° |
| 2026-04-21 18:52 | 34.45271 | -10.30359 | 37908 ft | 467 kts | 31° |
| 2026-04-21 18:52 | 34.50530 | -10.25737 | 37906 ft | 468 kts | 31° |
| 2026-04-21 18:53 | 34.55770 | -10.21125 | 37903 ft | 467 kts | 31° |
| 2026-04-21 18:53 | 34.61021 | -10.16494 | 37900 ft | 467 kts | 31° |
| 2026-04-21 18:54 | 34.66291 | -10.11853 | 37897 ft | 468 kts | 31° |
| 2026-04-21 18:54 | 34.71547 | -10.07232 | 37895 ft | 468 kts | 31° |
| 2026-04-21 18:55 | 34.76828 | -10.02582 | 37894 ft | 469 kts | 31° |
| 2026-04-21 18:55 | 34.82065 | -9.97964 | 37890 ft | 469 kts | 31° |
| 2026-04-21 18:56 | 34.87326 | -9.93315 | 37889 ft | 468 kts | 31° |
| 2026-04-21 18:56 | 34.92594 | -9.88656 | 37887 ft | 468 kts | 31° |
| 2026-04-21 18:57 | 34.97850 | -9.83998 | 37887 ft | 470 kts | 31° |
| 2026-04-21 18:57 | 35.03141 | -9.79300 | 37886 ft | 470 kts | 31° |
| 2026-04-21 18:58 | 35.08429 | -9.74599 | 37885 ft | 471 kts | 31° |
| 2026-04-21 18:58 | 35.13692 | -9.69909 | 37886 ft | 470 kts | 31° |
| 2026-04-21 18:59 | 35.18979 | -9.65192 | 37886 ft | 470 kts | 31° |
| 2026-04-21 18:59 | 35.24246 | -9.60488 | 37886 ft | 470 kts | 31° |
| 2026-04-21 19:00 | 35.29521 | -9.55767 | 37886 ft | 472 kts | 31° |
| 2026-04-21 19:00 | 35.34816 | -9.51023 | 37886 ft | 471 kts | 31° |
| 2026-04-21 19:01 | 35.40062 | -9.46310 | 37886 ft | 471 kts | 31° |
| 2026-04-21 19:01 | 35.45363 | -9.41542 | 37888 ft | 471 kts | 31° |
| 2026-04-21 19:02 | 35.50632 | -9.36794 | 37889 ft | 471 kts | 31° |
| 2026-04-21 19:02 | 35.55910 | -9.32031 | 37888 ft | 473 kts | 32° |
| 2026-04-21 19:03 | 35.60901 | -9.27521 | 37888 ft | 473 kts | 32° |
| 2026-04-21 19:03 | 35.66195 | -9.22728 | 37888 ft | 473 kts | 32° |
| 2026-04-21 19:04 | 35.71473 | -9.17943 | 37887 ft | 473 kts | 32° |
| 2026-04-21 19:04 | 35.76780 | -9.13122 | 37886 ft | 474 kts | 32° |
| 2026-04-21 19:05 | 35.82073 | -9.08306 | 37886 ft | 473 kts | 32° |
| 2026-04-21 19:05 | 35.87334 | -9.03513 | 37885 ft | 474 kts | 32° |
| 2026-04-21 19:06 | 35.92638 | -8.98678 | 37886 ft | 472 kts | 31° |
| 2026-04-21 19:06 | 35.98136 | -8.94280 | 37883 ft | 471 kts | 25° |
| 2026-04-21 19:07 | 36.03883 | -8.90606 | 37887 ft | 468 kts | 21° |
| 2026-04-21 19:07 | 36.09741 | -8.87099 | 37882 ft | 468 kts | 21° |
| 2026-04-21 19:08 | 36.15610 | -8.83581 | 37881 ft | 469 kts | 21° |
| 2026-04-21 19:08 | 36.21491 | -8.80045 | 37881 ft | 469 kts | 21° |
| 2026-04-21 19:09 | 36.27326 | -8.76525 | 37879 ft | 470 kts | 21° |
| 2026-04-21 19:09 | 36.33239 | -8.72949 | 37876 ft | 471 kts | 21° |
| 2026-04-21 19:10 | 36.39079 | -8.69411 | 37878 ft | 471 kts | 21° |
| 2026-04-21 19:10 | 36.44971 | -8.65837 | 37875 ft | 471 kts | 21° |
| 2026-04-21 19:11 | 36.50843 | -8.62268 | 37867 ft | 470 kts | 21° |
| 2026-04-21 19:11 | 36.56678 | -8.58715 | 37870 ft | 469 kts | 21° |
| 2026-04-21 19:12 | 36.62506 | -8.55161 | 37868 ft | 468 kts | 21° |
| 2026-04-21 19:12 | 36.68350 | -8.51592 | 37866 ft | 469 kts | 21° |
| 2026-04-21 19:13 | 36.74217 | -8.48003 | 37869 ft | 470 kts | 21° |
| 2026-04-21 19:13 | 36.80084 | -8.44408 | 37866 ft | 470 kts | 21° |
| 2026-04-21 19:14 | 36.85923 | -8.40823 | 37867 ft | 470 kts | 21° |
| 2026-04-21 19:14 | 36.91777 | -8.37221 | 37868 ft | 470 kts | 21° |
| 2026-04-21 19:15 | 36.97631 | -8.33616 | 37867 ft | 470 kts | 22° |
| 2026-04-21 19:15 | 37.03503 | -8.29992 | 37864 ft | 471 kts | 22° |
| 2026-04-21 19:16 | 37.09370 | -8.26367 | 37861 ft | 472 kts | 22° |
| 2026-04-21 19:16 | 37.15233 | -8.22734 | 37865 ft | 472 kts | 22° |
| 2026-04-21 19:17 | 37.24027 | -8.17276 | 37859 ft | 471 kts | 22° |
| 2026-04-21 19:17 | 37.29695 | -8.13753 | 37861 ft | 472 kts | 22° |
| 2026-04-21 19:18 | 37.35558 | -8.10101 | 37861 ft | 472 kts | 22° |
| 2026-04-21 19:18 | 37.41432 | -8.06438 | 37855 ft | 473 kts | 22° |
| 2026-04-21 19:19 | 37.47296 | -8.02773 | 37854 ft | 473 kts | 22° |
| 2026-04-21 19:19 | 37.53183 | -7.99087 | 37852 ft | 472 kts | 22° |
| 2026-04-21 19:20 | 37.59084 | -7.95496 | 37841 ft | 470 kts | 19° |
| 2026-04-21 19:20 | 37.65147 | -7.92565 | 37847 ft | 469 kts | 15° |
| 2026-04-21 19:21 | 37.71319 | -7.89862 | 37838 ft | 469 kts | 15° |
| 2026-04-21 19:21 | 37.77479 | -7.87169 | 37848 ft | 469 kts | 15° |
| 2026-04-21 19:22 | 37.83618 | -7.84473 | 37841 ft | 470 kts | 15° |
| 2026-04-21 19:22 | 37.89796 | -7.81752 | 37844 ft | 470 kts | 15° |
| 2026-04-21 19:23 | 37.95969 | -7.79026 | 37849 ft | 470 kts | 15° |
| 2026-04-21 19:23 | 38.02105 | -7.76312 | 37847 ft | 470 kts | 15° |
| 2026-04-21 19:24 | 38.08271 | -7.73580 | 37846 ft | 471 kts | 15° |
| 2026-04-21 19:24 | 38.14446 | -7.70838 | 37847 ft | 471 kts | 15° |
| 2026-04-21 19:25 | 38.20624 | -7.68089 | 37847 ft | 472 kts | 15° |
| 2026-04-21 19:25 | 38.26812 | -7.65332 | 37849 ft | 472 kts | 15° |
| 2026-04-21 19:26 | 38.33025 | -7.62558 | 37847 ft | 473 kts | 15° |
| 2026-04-21 19:26 | 38.39204 | -7.59796 | 37847 ft | 473 kts | 15° |
| 2026-04-21 19:27 | 38.45406 | -7.57015 | 37842 ft | 473 kts | 15° |
| 2026-04-21 19:27 | 38.51603 | -7.54233 | 37843 ft | 473 kts | 15° |
| 2026-04-21 19:28 | 38.57808 | -7.51445 | 37841 ft | 473 kts | 15° |
| 2026-04-21 19:28 | 38.64018 | -7.48649 | 37574 ft | 473 kts | 15° |
| 2026-04-21 19:29 | 38.67103 | -7.47257 | 37750 ft | 474 kts | 15° |
| 2026-04-21 19:29 | 38.70180 | -7.45868 | 37810 ft | 474 kts | 15° |
| 2026-04-21 19:29 | 38.76430 | -7.43042 | 37828 ft | 474 kts | 15° |
| 2026-04-21 19:30 | 38.82617 | -7.40240 | 37827 ft | 474 kts | 15° |
| 2026-04-21 19:30 | 38.88845 | -7.37414 | 37824 ft | 474 kts | 15° |
| 2026-04-21 19:31 | 38.95038 | -7.34598 | 37825 ft | 474 kts | 16° |
| 2026-04-21 19:31 | 39.01268 | -7.31763 | 37825 ft | 474 kts | 16° |
| 2026-04-21 19:32 | 39.07479 | -7.28932 | 37824 ft | 474 kts | 16° |
| 2026-04-21 19:32 | 39.13431 | -7.26213 | 37826 ft | 474 kts | 16° |
| 2026-04-21 19:33 | 39.19557 | -7.23407 | 37831 ft | 474 kts | 16° |
| 2026-04-21 19:33 | 39.25721 | -7.20397 | 37838 ft | 474 kts | 18° |
| 2026-04-21 19:34 | 39.31824 | -7.17244 | 37843 ft | 474 kts | 18° |
| 2026-04-21 19:34 | 39.37970 | -7.14064 | 37838 ft | 474 kts | 18° |
| 2026-04-21 19:35 | 39.47124 | -7.09332 | 37827 ft | 476 kts | 18° |
| 2026-04-21 19:36 | 39.53261 | -7.06152 | 37825 ft | 476 kts | 18° |
| 2026-04-21 19:36 | 39.59413 | -7.02961 | 37821 ft | 477 kts | 18° |
| 2026-04-21 19:37 | 39.65554 | -6.99772 | 37816 ft | 478 kts | 19° |
| 2026-04-21 19:37 | 39.71731 | -6.96554 | 37810 ft | 478 kts | 18° |
| 2026-04-21 19:38 | 39.77856 | -6.93360 | 37812 ft | 477 kts | 18° |
| 2026-04-21 19:38 | 39.84027 | -6.90135 | 37816 ft | 477 kts | 19° |
| 2026-04-21 19:39 | 39.90195 | -6.86906 | 37820 ft | 477 kts | 19° |
| 2026-04-21 19:39 | 39.96318 | -6.83691 | 37811 ft | 478 kts | 19° |
| 2026-04-21 19:40 | 40.02468 | -6.80460 | 37820 ft | 478 kts | 18° |
| 2026-04-21 19:40 | 40.08649 | -6.77207 | 37826 ft | 479 kts | 19° |
| 2026-04-21 19:41 | 40.14851 | -6.73933 | 37837 ft | 480 kts | 19° |
| 2026-04-21 19:41 | 40.21017 | -6.70671 | 37851 ft | 481 kts | 19° |
| 2026-04-21 19:42 | 40.27192 | -6.67398 | 37850 ft | 480 kts | 19° |
| 2026-04-21 19:42 | 40.33368 | -6.64121 | 37863 ft | 481 kts | 19° |
| 2026-04-21 19:43 | 40.39578 | -6.60819 | 37856 ft | 482 kts | 19° |
| 2026-04-21 19:43 | 40.45764 | -6.57523 | 37839 ft | 482 kts | 19° |
| 2026-04-21 19:44 | 40.51981 | -6.54203 | 37841 ft | 482 kts | 19° |
| 2026-04-21 19:44 | 40.58148 | -6.50903 | 37833 ft | 482 kts | 19° |
| 2026-04-21 19:45 | 40.64340 | -6.47584 | 37829 ft | 482 kts | 19° |
| 2026-04-21 19:45 | 40.70573 | -6.44240 | 37832 ft | 482 kts | 19° |
| 2026-04-21 19:46 | 40.76775 | -6.40901 | 37830 ft | 483 kts | 19° |
| 2026-04-21 19:46 | 40.82981 | -6.37557 | 37828 ft | 483 kts | 19° |
| 2026-04-21 19:47 | 40.89218 | -6.34188 | 37824 ft | 483 kts | 19° |
| 2026-04-21 19:47 | 40.95298 | -6.30420 | 37831 ft | 486 kts | 26° |
| 2026-04-21 19:48 | 41.00787 | -6.25978 | 37843 ft | 488 kts | 33° |
| 2026-04-21 19:48 | 41.06127 | -6.20475 | 37843 ft | 490 kts | 40° |
| 2026-04-21 19:49 | 41.11176 | -6.14459 | 37848 ft | 490 kts | 41° |
| 2026-04-21 19:49 | 41.16225 | -6.08370 | 37851 ft | 490 kts | 41° |
| 2026-04-21 19:50 | 41.21264 | -6.02313 | 37854 ft | 490 kts | 40° |
| 2026-04-21 19:50 | 41.26294 | -5.96267 | 37854 ft | 490 kts | 40° |
| 2026-04-21 19:51 | 41.31358 | -5.90177 | 37866 ft | 492 kts | 41° |
| 2026-04-21 19:51 | 41.36410 | -5.84085 | 37856 ft | 494 kts | 41° |
| 2026-04-21 19:52 | 41.41488 | -5.77945 | 37861 ft | 494 kts | 41° |
| 2026-04-21 19:52 | 41.46561 | -5.71827 | 37849 ft | 495 kts | 39° |
| 2026-04-21 19:53 | 41.51979 | -5.66204 | 37848 ft | 494 kts | 32° |
| 2026-04-21 19:53 | 41.57830 | -5.61463 | 37850 ft | 493 kts | 25° |
| 2026-04-21 19:54 | 41.64030 | -5.57618 | 37840 ft | 491 kts | 20° |
| 2026-04-21 19:54 | 41.70330 | -5.54102 | 37847 ft | 491 kts | 20° |
| 2026-04-21 19:55 | 41.76628 | -5.50572 | 37845 ft | 492 kts | 20° |
| 2026-04-21 19:55 | 41.82942 | -5.47007 | 37848 ft | 494 kts | 20° |
| 2026-04-21 19:56 | 41.89241 | -5.43431 | 37859 ft | 494 kts | 20° |
| 2026-04-21 19:56 | 41.95543 | -5.39844 | 37859 ft | 495 kts | 20° |
| 2026-04-21 19:57 | 42.01894 | -5.36219 | 37866 ft | 496 kts | 20° |
| 2026-04-21 19:57 | 42.08254 | -5.32588 | 37868 ft | 496 kts | 21° |
| 2026-04-21 19:58 | 42.14595 | -5.28955 | 37876 ft | 496 kts | 21° |
| 2026-04-21 19:58 | 42.20914 | -5.25324 | 37878 ft | 495 kts | 21° |
| 2026-04-21 19:59 | 42.27244 | -5.21685 | 37873 ft | 496 kts | 21° |
| 2026-04-21 19:59 | 42.33565 | -5.18042 | 37885 ft | 496 kts | 21° |
| 2026-04-21 20:00 | 42.39894 | -5.14382 | 37892 ft | 495 kts | 21° |
| 2026-04-21 20:00 | 42.46221 | -5.10720 | 37904 ft | 496 kts | 21° |
| 2026-04-21 20:01 | 42.52542 | -5.07056 | 37906 ft | 497 kts | 21° |
| 2026-04-21 20:01 | 42.58910 | -5.03355 | 37910 ft | 496 kts | 22° |
| 2026-04-21 20:02 | 42.65198 | -4.99691 | 37924 ft | 497 kts | 22° |
| 2026-04-21 20:02 | 42.71533 | -4.95979 | 37924 ft | 496 kts | 22° |
| 2026-04-21 20:03 | 42.77535 | -4.92457 | 37923 ft | 495 kts | 22° |
| 2026-04-21 20:03 | 42.83888 | -4.88723 | 37930 ft | 496 kts | 22° |
| 2026-04-21 20:04 | 42.90171 | -4.85023 | 37942 ft | 495 kts | 22° |
| 2026-04-21 20:04 | 42.96500 | -4.81291 | 37951 ft | 496 kts | 22° |
| 2026-04-21 20:05 | 43.02790 | -4.77571 | 37957 ft | 496 kts | 22° |
| 2026-04-21 20:05 | 43.09116 | -4.73823 | 37947 ft | 496 kts | 22° |
| 2026-04-21 20:06 | 43.15437 | -4.70071 | 37929 ft | 495 kts | 22° |
| 2026-04-21 20:06 | 43.21760 | -4.66307 | 37907 ft | 496 kts | 22° |
| 2026-04-21 20:07 | 43.28067 | -4.62548 | 37883 ft | 496 kts | 23° |
| 2026-04-21 20:07 | 43.34351 | -4.58788 | 37867 ft | 495 kts | 23° |
| 2026-04-21 20:08 | 43.40663 | -4.55010 | 37836 ft | 496 kts | 23° |
| 2026-04-21 20:08 | 43.47001 | -4.51207 | 37809 ft | 496 kts | 23° |
| 2026-04-21 20:09 | 43.53283 | -4.47418 | 37792 ft | 497 kts | 23° |
| 2026-04-21 20:09 | 43.59587 | -4.43604 | 37799 ft | 495 kts | 23° |
| 2026-04-21 20:10 | 43.65865 | -4.39805 | 37794 ft | 495 kts | 23° |
| 2026-04-21 20:10 | 43.72155 | -4.35991 | 37779 ft | 495 kts | 24° |
| 2026-04-21 20:11 | 43.78497 | -4.32138 | 37776 ft | 497 kts | 24° |
| 2026-04-21 20:11 | 43.84785 | -4.28308 | 37764 ft | 495 kts | 24° |
| 2026-04-21 20:12 | 43.91082 | -4.24465 | 37759 ft | 495 kts | 25° |
| 2026-04-21 20:12 | 43.97366 | -4.20620 | 37746 ft | 495 kts | 25° |
| 2026-04-21 20:13 | 44.03640 | -4.16773 | 37741 ft | 495 kts | 25° |
| 2026-04-21 20:13 | 44.09885 | -4.12933 | 37725 ft | 494 kts | 25° |
| 2026-04-21 20:14 | 44.16186 | -4.09052 | 37738 ft | 494 kts | 25° |
| 2026-04-21 20:14 | 44.22408 | -4.05214 | 37737 ft | 493 kts | 25° |
| 2026-04-21 20:15 | 44.28702 | -4.01322 | 37750 ft | 493 kts | 25° |
| 2026-04-21 20:15 | 44.34835 | -3.97195 | 37753 ft | 491 kts | 30° |
| 2026-04-21 20:16 | 44.40807 | -3.92499 | 37766 ft | 493 kts | 31° |
| 2026-04-21 20:16 | 44.46711 | -3.87789 | 37763 ft | 492 kts | 30° |
| 2026-04-21 20:17 | 44.52666 | -3.83042 | 37761 ft | 492 kts | 30° |
| 2026-04-21 20:17 | 44.58582 | -3.78328 | 37771 ft | 493 kts | 30° |
| 2026-04-21 20:18 | 44.64243 | -3.73809 | 37777 ft | 493 kts | 30° |
| 2026-04-21 20:18 | 44.70201 | -3.69044 | 37791 ft | 493 kts | 30° |
| 2026-04-21 20:19 | 44.76131 | -3.64291 | 37803 ft | 493 kts | 30° |
| 2026-04-21 20:19 | 44.82076 | -3.59513 | 37792 ft | 493 kts | 30° |
| 2026-04-21 20:20 | 44.88031 | -3.54718 | 37805 ft | 493 kts | 30° |
| 2026-04-21 20:20 | 44.93959 | -3.49930 | 37799 ft | 493 kts | 29° |
| 2026-04-21 20:21 | 44.99905 | -3.45119 | 37802 ft | 493 kts | 29° |
| 2026-04-21 20:21 | 45.05825 | -3.40314 | 37809 ft | 493 kts | 29° |
| 2026-04-21 20:22 | 45.11728 | -3.35514 | 37811 ft | 493 kts | 29° |
| 2026-04-21 20:22 | 45.20644 | -3.28240 | 37805 ft | 492 kts | 30° |
| 2026-04-21 20:23 | 45.26530 | -3.23426 | 37818 ft | 491 kts | 29° |
| 2026-04-21 20:23 | 45.32444 | -3.18575 | 37814 ft | 491 kts | 29° |
| 2026-04-21 20:24 | 45.38324 | -3.13741 | 37815 ft | 491 kts | 29° |
| 2026-04-21 20:24 | 45.44193 | -3.08904 | 37820 ft | 490 kts | 29° |
| 2026-04-21 20:25 | 45.50103 | -3.04021 | 37820 ft | 489 kts | 29° |
| 2026-04-21 20:25 | 45.55969 | -2.99160 | 37821 ft | 489 kts | 29° |
| 2026-04-21 20:26 | 45.61825 | -2.94301 | 37834 ft | 488 kts | 28° |
| 2026-04-21 20:26 | 45.67664 | -2.89443 | 37844 ft | 487 kts | 28° |
| 2026-04-21 20:27 | 45.73508 | -2.84567 | 37849 ft | 488 kts | 28° |
| 2026-04-21 20:27 | 45.79352 | -2.79682 | 37857 ft | 488 kts | 28° |
| 2026-04-21 20:28 | 45.85157 | -2.74815 | 37864 ft | 486 kts | 28° |
| 2026-04-21 20:28 | 45.90979 | -2.69925 | 37858 ft | 487 kts | 28° |
| 2026-04-21 20:29 | 45.96831 | -2.64999 | 37849 ft | 485 kts | 28° |
| 2026-04-21 20:29 | 46.02589 | -2.60141 | 37859 ft | 485 kts | 28° |
| 2026-04-21 20:30 | 46.08414 | -2.55212 | 37862 ft | 484 kts | 27° |
| 2026-04-21 20:30 | 46.14360 | -2.50880 | 37874 ft | 481 kts | 19° |
| 2026-04-21 20:31 | 46.20659 | -2.47750 | 37875 ft | 478 kts | 11° |
| 2026-04-21 20:31 | 46.27110 | -2.45923 | 37883 ft | 474 kts | 3° |
| 2026-04-21 20:32 | 46.33642 | -2.44913 | 37899 ft | 473 kts | 2° |
| 2026-04-21 20:32 | 46.39951 | -2.43954 | 37906 ft | 473 kts | 4° |
| 2026-04-21 20:33 | 46.46361 | -2.42187 | 37913 ft | 476 kts | 11° |
| 2026-04-21 20:33 | 46.52632 | -2.39187 | 37918 ft | 479 kts | 19° |
| 2026-04-21 20:34 | 46.58606 | -2.35006 | 37926 ft | 481 kts | 26° |
| 2026-04-21 20:34 | 46.64438 | -2.30176 | 37925 ft | 481 kts | 27° |
| 2026-04-21 20:35 | 46.70180 | -2.25374 | 37927 ft | 480 kts | 27° |
| 2026-04-21 20:35 | 46.75957 | -2.20559 | 37935 ft | 479 kts | 27° |
| 2026-04-21 20:36 | 46.81731 | -2.15751 | 37937 ft | 478 kts | 27° |
| 2026-04-21 20:36 | 46.87477 | -2.10951 | 37942 ft | 477 kts | 27° |
| 2026-04-21 20:37 | 46.93322 | -2.06508 | 37943 ft | 475 kts | 22° |
| 2026-04-21 20:37 | 46.99398 | -2.02836 | 37948 ft | 471 kts | 16° |
| 2026-04-21 20:38 | 47.05654 | -2.00194 | 37952 ft | 468 kts | 9° |
| 2026-04-21 20:38 | 47.12014 | -1.98462 | 37960 ft | 465 kts | 6° |
| 2026-04-21 20:39 | 47.18354 | -1.96949 | 37979 ft | 464 kts | 6° |
| 2026-04-21 20:39 | 47.24743 | -1.95388 | 37989 ft | 465 kts | 6° |
| 2026-04-21 20:40 | 47.31070 | -1.93543 | 37987 ft | 467 kts | 11° |
| 2026-04-21 20:40 | 47.37273 | -1.90705 | 37996 ft | 470 kts | 17° |
| 2026-04-21 20:41 | 47.43259 | -1.86874 | 38005 ft | 472 kts | 22° |
| 2026-04-21 20:41 | 47.49113 | -1.82648 | 38005 ft | 471 kts | 22° |
| 2026-04-21 20:42 | 47.54998 | -1.78376 | 38013 ft | 470 kts | 22° |
| 2026-04-21 20:42 | 47.60828 | -1.74153 | 38015 ft | 470 kts | 22° |
| 2026-04-21 20:43 | 47.66696 | -1.69894 | 38025 ft | 470 kts | 22° |
| 2026-04-21 20:43 | 47.72512 | -1.65669 | 38023 ft | 469 kts | 22° |
| 2026-04-21 20:44 | 47.78368 | -1.61404 | 38030 ft | 469 kts | 22° |
| 2026-04-21 20:44 | 47.84198 | -1.57150 | 38030 ft | 468 kts | 21° |
| 2026-04-21 20:45 | 47.90047 | -1.52872 | 38038 ft | 467 kts | 21° |
| 2026-04-21 20:45 | 47.95864 | -1.48749 | 38044 ft | 464 kts | 18° |
| 2026-04-21 20:46 | 48.01941 | -1.45794 | 38050 ft | 458 kts | 8° |
| 2026-04-21 20:46 | 48.08176 | -1.44326 | 38053 ft | 452 kts | 359° |
| 2026-04-21 20:47 | 48.14453 | -1.44277 | 38057 ft | 451 kts | 353° |
| 2026-04-21 20:47 | 48.20457 | -1.44726 | 38060 ft | 452 kts | 352° |
| 2026-04-21 20:48 | 48.26659 | -1.45201 | 38063 ft | 452 kts | 352° |
| 2026-04-21 20:48 | 48.32920 | -1.45666 | 38067 ft | 452 kts | 353° |
| 2026-04-21 20:49 | 48.39166 | -1.46122 | 38062 ft | 452 kts | 353° |
| 2026-04-21 20:49 | 48.45409 | -1.46579 | 38064 ft | 451 kts | 352° |
| 2026-04-21 20:50 | 48.51672 | -1.47039 | 38077 ft | 451 kts | 353° |
| 2026-04-21 20:50 | 48.57940 | -1.47501 | 38075 ft | 451 kts | 353° |
| 2026-04-21 20:51 | 48.64169 | -1.47963 | 38077 ft | 451 kts | 353° |
| 2026-04-21 20:51 | 48.70415 | -1.48430 | 38079 ft | 451 kts | 353° |
| 2026-04-21 20:52 | 48.76703 | -1.48899 | 38079 ft | 451 kts | 353° |
| 2026-04-21 20:52 | 48.82929 | -1.49174 | 38087 ft | 453 kts | 357° |
| 2026-04-21 20:53 | 48.89207 | -1.48406 | 38092 ft | 454 kts | 4° |
| 2026-04-21 20:53 | 48.95375 | -1.46494 | 38098 ft | 458 kts | 10° |
| 2026-04-21 20:54 | 49.01458 | -1.43465 | 38097 ft | 461 kts | 15° |
| 2026-04-21 20:54 | 49.07453 | -1.40083 | 38122 ft | 461 kts | 15° |
| 2026-04-21 20:55 | 49.13439 | -1.36689 | 38116 ft | 461 kts | 15° |
| 2026-04-21 20:55 | 49.19450 | -1.33288 | 38104 ft | 461 kts | 16° |
| 2026-04-21 20:56 | 49.25442 | -1.29895 | 38116 ft | 461 kts | 16° |
| 2026-04-21 20:56 | 49.31393 | -1.26520 | 38127 ft | 460 kts | 16° |
| 2026-04-21 20:57 | 49.37391 | -1.23110 | 38141 ft | 461 kts | 16° |
| 2026-04-21 20:57 | 49.43365 | -1.19705 | 38128 ft | 460 kts | 16° |
| 2026-04-21 20:58 | 49.49358 | -1.16280 | 38152 ft | 460 kts | 16° |
| 2026-04-21 20:58 | 49.55366 | -1.13118 | 38153 ft | 457 kts | 12° |
| 2026-04-21 20:59 | 49.61516 | -1.10912 | 38163 ft | 452 kts | 5° |
| 2026-04-21 20:59 | 49.67733 | -1.09707 | 38159 ft | 450 kts | 1° |
| 2026-04-21 21:00 | 49.73960 | -1.08901 | 38169 ft | 451 kts | 0° |
| 2026-04-21 21:00 | 49.80177 | -1.08073 | 38163 ft | 451 kts | 1° |
| 2026-04-21 21:01 | 49.86413 | -1.07213 | 38163 ft | 451 kts | 1° |
| 2026-04-21 21:01 | 49.92642 | -1.06358 | 38174 ft | 451 kts | 1° |
| 2026-04-21 21:02 | 49.98878 | -1.05501 | 38174 ft | 451 kts | 1° |
| 2026-04-21 21:02 | 50.04895 | -1.04660 | 38193 ft | 451 kts | 1° |
| 2026-04-21 21:03 | 50.11100 | -1.03794 | 38217 ft | 451 kts | 1° |
| 2026-04-21 21:03 | 50.17365 | -1.02926 | 38204 ft | 451 kts | 1° |
| 2026-04-21 21:04 | 50.23500 | -1.02073 | 38217 ft | 451 kts | 1° |
| 2026-04-21 21:04 | 50.29791 | -1.01034 | 38273 ft | 459 kts | 4° |
| 2026-04-21 21:05 | 50.32946 | -1.00166 | 38401 ft | 463 kts | 7° |
| 2026-04-21 21:05 | 50.36128 | -0.99013 | 38605 ft | 465 kts | 11° |
| 2026-04-21 21:05 | 50.39233 | -0.97610 | 38784 ft | 467 kts | 13° |
| 2026-04-21 21:05 | 50.42278 | -0.96058 | 38981 ft | 467 kts | 14° |
| 2026-04-21 21:06 | 50.45342 | -0.94445 | 39172 ft | 466 kts | 14° |
| 2026-04-21 21:06 | 50.48410 | -0.92821 | 39234 ft | 466 kts | 14° |
| 2026-04-21 21:06 | 50.54568 | -0.89561 | 39220 ft | 465 kts | 15° |
| 2026-04-21 21:07 | 50.60675 | -0.86331 | 39237 ft | 464 kts | 15° |
| 2026-04-21 21:07 | 50.66758 | -0.83101 | 39213 ft | 464 kts | 15° |
| 2026-04-21 21:08 | 50.72876 | -0.79847 | 39242 ft | 463 kts | 15° |
| 2026-04-21 21:08 | 50.78956 | -0.76606 | 39235 ft | 464 kts | 15° |
| 2026-04-21 21:09 | 50.85064 | -0.73341 | 39243 ft | 465 kts | 15° |
| 2026-04-21 21:09 | 50.91184 | -0.70075 | 39242 ft | 464 kts | 15° |
| 2026-04-21 21:10 | 50.97242 | -0.66837 | 39251 ft | 462 kts | 15° |
| 2026-04-21 21:10 | 51.03301 | -0.63550 | 39267 ft | 463 kts | 17° |
| 2026-04-21 21:11 | 51.09244 | -0.59498 | 39272 ft | 466 kts | 21° |
| 2026-04-21 21:11 | 51.15074 | -0.55011 | 39269 ft | 466 kts | 22° |
| 2026-04-21 21:12 | 51.20887 | -0.50514 | 39297 ft | 467 kts | 21° |
| 2026-04-21 21:12 | 51.26850 | -0.46646 | 39248 ft | 463 kts | 16° |
| 2026-04-21 21:13 | 51.32816 | -0.42869 | 39260 ft | 465 kts | 21° |
| 2026-04-21 21:13 | 51.38682 | -0.38476 | 39286 ft | 465 kts | 22° |
| 2026-04-21 21:14 | 51.44504 | -0.34030 | 39287 ft | 465 kts | 22° |
| 2026-04-21 21:14 | 51.50333 | -0.29577 | 39271 ft | 466 kts | 23° |
| 2026-04-21 21:15 | 51.56200 | -0.25086 | 39292 ft | 467 kts | 23° |
| 2026-04-21 21:15 | 51.62016 | -0.20627 | 39295 ft | 466 kts | 23° |
| 2026-04-21 21:16 | 51.67826 | -0.16157 | 39275 ft | 466 kts | 23° |
| 2026-04-21 21:16 | 51.73356 | -0.10666 | 39293 ft | 471 kts | 37° |
| 2026-04-21 21:17 | 51.77768 | -0.02901 | 39312 ft | 476 kts | 53° |
| 2026-04-21 21:17 | 51.81114 | 0.05852 | 39319 ft | 476 kts | 56° |
| 2026-04-21 21:18 | 51.84445 | 0.14869 | 39316 ft | 476 kts | 56° |
| 2026-04-21 21:18 | 51.87835 | 0.24033 | 39331 ft | 475 kts | 56° |
| 2026-04-21 21:19 | 51.91212 | 0.33159 | 39320 ft | 475 kts | 56° |
| 2026-04-21 21:19 | 51.94594 | 0.42311 | 39323 ft | 474 kts | 56° |
| 2026-04-21 21:20 | 51.97939 | 0.51394 | 39316 ft | 474 kts | 56° |
| 2026-04-21 21:20 | 52.01299 | 0.60559 | 39327 ft | 473 kts | 56° |
| 2026-04-21 21:21 | 52.04642 | 0.69738 | 39327 ft | 474 kts | 57° |
| 2026-04-21 21:21 | 52.07966 | 0.78931 | 39338 ft | 474 kts | 57° |
| 2026-04-21 21:22 | 52.11300 | 0.88162 | 39341 ft | 473 kts | 57° |
| 2026-04-21 21:22 | 52.14590 | 0.97302 | 39337 ft | 473 kts | 57° |
| 2026-04-21 21:23 | 52.17897 | 1.06515 | 39337 ft | 472 kts | 57° |
| 2026-04-21 21:23 | 52.21187 | 1.15709 | 39336 ft | 472 kts | 57° |
| 2026-04-21 21:24 | 52.24470 | 1.24918 | 39336 ft | 472 kts | 57° |
| 2026-04-21 21:24 | 52.27746 | 1.34145 | 39337 ft | 471 kts | 57° |
| 2026-04-21 21:25 | 52.31043 | 1.43286 | 39341 ft | 470 kts | 55° |
| 2026-04-21 21:25 | 52.34792 | 1.51959 | 39339 ft | 468 kts | 49° |
| 2026-04-21 21:26 | 52.39042 | 1.59901 | 39340 ft | 467 kts | 44° |
| 2026-04-21 21:26 | 52.43510 | 1.67408 | 39339 ft | 469 kts | 44° |
| 2026-04-21 21:27 | 52.48033 | 1.74986 | 39338 ft | 467 kts | 44° |
| 2026-04-21 21:27 | 52.52550 | 1.82600 | 39339 ft | 466 kts | 44° |
| 2026-04-21 21:28 | 52.57044 | 1.90218 | 39340 ft | 466 kts | 44° |
| 2026-04-21 21:29 | 52.63758 | 2.01686 | 39351 ft | 468 kts | 44° |
| 2026-04-21 21:29 | 52.68232 | 2.09353 | 39356 ft | 467 kts | 44° |
| 2026-04-21 21:30 | 52.72713 | 2.17051 | 39356 ft | 465 kts | 44° |
| 2026-04-21 21:30 | 52.77178 | 2.24741 | 39372 ft | 466 kts | 44° |
| 2026-04-21 21:31 | 52.81615 | 2.32405 | 39375 ft | 466 kts | 44° |
| 2026-04-21 21:31 | 52.86084 | 2.40141 | 39372 ft | 465 kts | 44° |
| 2026-04-21 21:32 | 52.90525 | 2.47862 | 39369 ft | 465 kts | 45° |
| 2026-04-21 21:32 | 52.95118 | 2.55291 | 39369 ft | 464 kts | 39° |
| 2026-04-21 21:33 | 52.99870 | 2.61609 | 39373 ft | 463 kts | 34° |
| 2026-04-21 21:33 | 53.05255 | 2.67398 | 39379 ft | 463 kts | 29° |
| 2026-04-21 21:34 | 53.10963 | 2.72351 | 39381 ft | 464 kts | 25° |
| 2026-04-21 21:34 | 53.16742 | 2.77075 | 39382 ft | 464 kts | 25° |
| 2026-04-21 21:35 | 53.22279 | 2.82382 | 39372 ft | 464 kts | 36° |
| 2026-04-21 21:35 | 53.26921 | 2.89845 | 39375 ft | 467 kts | 50° |
| 2026-04-21 21:36 | 53.30331 | 2.99052 | 39378 ft | 469 kts | 64° |
| 2026-04-21 21:36 | 53.32420 | 3.09345 | 39384 ft | 471 kts | 72° |
| 2026-04-21 21:37 | 53.34169 | 3.19801 | 39380 ft | 470 kts | 72° |
| 2026-04-21 21:37 | 53.35919 | 3.30251 | 39389 ft | 469 kts | 72° |
| 2026-04-21 21:38 | 53.37704 | 3.40768 | 39384 ft | 469 kts | 70° |
| 2026-04-21 21:38 | 53.40048 | 3.50836 | 39386 ft | 467 kts | 62° |
| 2026-04-21 21:39 | 53.43224 | 3.60257 | 39384 ft | 465 kts | 54° |
| 2026-04-21 21:39 | 53.47139 | 3.68770 | 39380 ft | 464 kts | 47° |
| 2026-04-21 21:40 | 53.51482 | 3.76689 | 39384 ft | 463 kts | 46° |
| 2026-04-21 21:40 | 53.55928 | 3.84496 | 39385 ft | 462 kts | 44° |
| 2026-04-21 21:41 | 53.60551 | 3.91953 | 39390 ft | 463 kts | 43° |
| 2026-04-21 21:41 | 53.65169 | 3.99382 | 39395 ft | 463 kts | 43° |
| 2026-04-21 21:42 | 53.69812 | 4.06907 | 39397 ft | 463 kts | 43° |
| 2026-04-21 21:42 | 53.74396 | 4.14375 | 39397 ft | 463 kts | 43° |
| 2026-04-21 21:43 | 53.79031 | 4.21952 | 39401 ft | 463 kts | 43° |
| 2026-04-21 21:43 | 53.83616 | 4.29477 | 39402 ft | 462 kts | 44° |
| 2026-04-21 21:44 | 53.88211 | 4.37046 | 39402 ft | 463 kts | 44° |
| 2026-04-21 21:44 | 53.92797 | 4.44622 | 39404 ft | 463 kts | 44° |
| 2026-04-21 21:45 | 53.97374 | 4.52208 | 39405 ft | 463 kts | 44° |
| 2026-04-21 21:45 | 54.01946 | 4.59812 | 39407 ft | 462 kts | 44° |
| 2026-04-21 21:46 | 54.06516 | 4.67438 | 39411 ft | 461 kts | 44° |
| 2026-04-21 21:46 | 54.11071 | 4.75061 | 39412 ft | 462 kts | 44° |
| 2026-04-21 21:47 | 54.15640 | 4.82730 | 39415 ft | 461 kts | 45° |
| 2026-04-21 21:47 | 54.20192 | 4.90398 | 39411 ft | 461 kts | 45° |
| 2026-04-21 21:48 | 54.24418 | 4.97542 | 39405 ft | 461 kts | 45° |
| 2026-04-21 21:48 | 54.28973 | 5.05265 | 39398 ft | 460 kts | 45° |
| 2026-04-21 21:49 | 54.33475 | 5.12923 | 39398 ft | 460 kts | 45° |
| 2026-04-21 21:49 | 54.37982 | 5.20614 | 39403 ft | 460 kts | 45° |
| 2026-04-21 21:50 | 54.42503 | 5.28355 | 39407 ft | 459 kts | 45° |
| 2026-04-21 21:50 | 54.47000 | 5.36079 | 39414 ft | 459 kts | 45° |
| 2026-04-21 21:51 | 54.51471 | 5.43783 | 39414 ft | 459 kts | 45° |
| 2026-04-21 21:51 | 54.55962 | 5.51549 | 39415 ft | 458 kts | 45° |
| 2026-04-21 21:52 | 54.60424 | 5.59291 | 39416 ft | 458 kts | 45° |
| 2026-04-21 21:52 | 54.64910 | 5.67100 | 39417 ft | 458 kts | 46° |
| 2026-04-21 21:53 | 54.69356 | 5.74865 | 39412 ft | 458 kts | 45° |
| 2026-04-21 21:53 | 54.73803 | 5.82655 | 39410 ft | 457 kts | 46° |
| 2026-04-21 21:54 | 54.78269 | 5.90505 | 39408 ft | 457 kts | 46° |
| 2026-04-21 21:54 | 54.82708 | 5.98336 | 39408 ft | 458 kts | 46° |
| 2026-04-21 21:55 | 54.87143 | 6.06188 | 39407 ft | 457 kts | 46° |
| 2026-04-21 21:55 | 54.91550 | 6.14013 | 39406 ft | 457 kts | 46° |
| 2026-04-21 21:56 | 54.95984 | 6.21912 | 39404 ft | 456 kts | 46° |
| 2026-04-21 21:56 | 55.00377 | 6.29751 | 39402 ft | 456 kts | 46° |
| 2026-04-21 21:57 | 55.05071 | 6.37188 | 39405 ft | 457 kts | 40° |
| 2026-04-21 21:57 | 55.09934 | 6.44136 | 39405 ft | 456 kts | 39° |
| 2026-04-21 21:58 | 55.14848 | 6.51202 | 39403 ft | 456 kts | 39° |
| 2026-04-21 21:58 | 55.19692 | 6.58232 | 39406 ft | 457 kts | 40° |
| 2026-04-21 21:59 | 55.24565 | 6.65346 | 39405 ft | 456 kts | 40° |
| 2026-04-21 21:59 | 55.29369 | 6.72390 | 38955 ft | 451 kts | 40° |
| 2026-04-21 21:59 | 55.31773 | 6.75923 | 38503 ft | 449 kts | 41° |
| 2026-04-21 22:00 | 55.34119 | 6.79377 | 38125 ft | 446 kts | 41° |
| 2026-04-21 22:00 | 55.36475 | 6.82851 | 37763 ft | 443 kts | 41° |
| 2026-04-21 22:00 | 55.38845 | 6.86352 | 37340 ft | 442 kts | 41° |
| 2026-04-21 22:00 | 55.41156 | 6.89773 | 36892 ft | 441 kts | 41° |
| 2026-04-21 22:01 | 55.43489 | 6.93230 | 36433 ft | 441 kts | 41° |
| 2026-04-21 22:01 | 55.45835 | 6.96714 | 36126 ft | 440 kts | 41° |
| 2026-04-21 22:01 | 55.48161 | 7.00172 | 35826 ft | 439 kts | 41° |
| 2026-04-21 22:01 | 55.50472 | 7.03613 | 35498 ft | 438 kts | 41° |
| 2026-04-21 22:02 | 55.52772 | 7.07044 | 35093 ft | 437 kts | 42° |
| 2026-04-21 22:02 | 55.55106 | 7.10532 | 34479 ft | 437 kts | 42° |
| 2026-04-21 22:02 | 55.57412 | 7.13986 | 33806 ft | 438 kts | 42° |
| 2026-04-21 22:02 | 55.59569 | 7.17219 | 33135 ft | 440 kts | 42° |
| 2026-04-21 22:03 | 55.61813 | 7.20591 | 32440 ft | 441 kts | 42° |
| 2026-04-21 22:03 | 55.64149 | 7.24104 | 31727 ft | 443 kts | 42° |
| 2026-04-21 22:03 | 55.66495 | 7.27640 | 30990 ft | 444 kts | 42° |
| 2026-04-21 22:03 | 55.68835 | 7.31171 | 30202 ft | 446 kts | 42° |
| 2026-04-21 22:04 | 55.71177 | 7.34711 | 29373 ft | 448 kts | 42° |
| 2026-04-21 22:04 | 55.73524 | 7.38265 | 28501 ft | 451 kts | 42° |
| 2026-04-21 22:04 | 55.75919 | 7.41896 | 27674 ft | 452 kts | 42° |
| 2026-04-21 22:04 | 55.78277 | 7.45477 | 27149 ft | 446 kts | 42° |
| 2026-04-21 22:05 | 55.80615 | 7.49031 | 26613 ft | 441 kts | 43° |
| 2026-04-21 22:05 | 55.82896 | 7.52504 | 26031 ft | 438 kts | 43° |
| 2026-04-21 22:05 | 55.85189 | 7.56002 | 25434 ft | 434 kts | 43° |
| 2026-04-21 22:05 | 55.87457 | 7.59469 | 24847 ft | 431 kts | 43° |
| 2026-04-21 22:06 | 55.89711 | 7.62917 | 24271 ft | 428 kts | 43° |
| 2026-04-21 22:06 | 55.91953 | 7.66357 | 23691 ft | 424 kts | 43° |
| 2026-04-21 22:06 | 55.94165 | 7.69756 | 23120 ft | 421 kts | 43° |
| 2026-04-21 22:06 | 55.96390 | 7.73179 | 22541 ft | 418 kts | 43° |
| 2026-04-21 22:07 | 55.98563 | 7.76526 | 21979 ft | 415 kts | 43° |
| 2026-04-21 22:07 | 56.00737 | 7.79881 | 21421 ft | 412 kts | 43° |
| 2026-04-21 22:07 | 56.02882 | 7.83196 | 20882 ft | 409 kts | 43° |
| 2026-04-21 22:07 | 56.05006 | 7.86484 | 20347 ft | 406 kts | 43° |
| 2026-04-21 22:08 | 56.07132 | 7.89780 | 19805 ft | 403 kts | 43° |
| 2026-04-21 22:08 | 56.09235 | 7.93045 | 19270 ft | 400 kts | 43° |
| 2026-04-21 22:08 | 56.11334 | 7.96309 | 18743 ft | 397 kts | 43° |
| 2026-04-21 22:08 | 56.13387 | 7.99504 | 18234 ft | 394 kts | 43° |
| 2026-04-21 22:09 | 56.15443 | 8.02709 | 17706 ft | 392 kts | 43° |
| 2026-04-21 22:09 | 56.17490 | 8.05906 | 17194 ft | 389 kts | 42° |
| 2026-04-21 22:09 | 56.19501 | 8.09050 | 16686 ft | 386 kts | 42° |
| 2026-04-21 22:09 | 56.21504 | 8.12186 | 16181 ft | 384 kts | 42° |
| 2026-04-21 22:10 | 56.23516 | 8.15340 | 15667 ft | 381 kts | 42° |
| 2026-04-21 22:10 | 56.25491 | 8.18442 | 15164 ft | 379 kts | 42° |
| 2026-04-21 22:10 | 56.27464 | 8.21546 | 14661 ft | 376 kts | 42° |
| 2026-04-21 22:10 | 56.29413 | 8.24615 | 14153 ft | 374 kts | 42° |
| 2026-04-21 22:11 | 56.31348 | 8.27667 | 13664 ft | 371 kts | 42° |
| 2026-04-21 22:11 | 56.33270 | 8.30700 | 13191 ft | 368 kts | 42° |
| 2026-04-21 22:11 | 56.35198 | 8.33750 | 12700 ft | 366 kts | 42° |
| 2026-04-21 22:11 | 56.37098 | 8.36759 | 12221 ft | 363 kts | 42° |
| 2026-04-21 22:12 | 56.38976 | 8.39735 | 11752 ft | 361 kts | 42° |
| 2026-04-21 22:12 | 56.40827 | 8.42675 | 11284 ft | 358 kts | 41° |
| 2026-04-21 22:12 | 56.42702 | 8.45658 | 10808 ft | 355 kts | 41° |
| 2026-04-21 22:12 | 56.44515 | 8.48546 | 10516 ft | 347 kts | 41° |
| 2026-04-21 22:13 | 56.46312 | 8.51410 | 10329 ft | 337 kts | 41° |
| 2026-04-21 22:13 | 56.48019 | 8.54135 | 10154 ft | 327 kts | 41° |
| 2026-04-21 22:13 | 56.49703 | 8.56823 | 9983 ft | 318 kts | 41° |
| 2026-04-21 22:13 | 56.51314 | 8.59399 | 9752 ft | 307 kts | 41° |
| 2026-04-21 22:14 | 56.52880 | 8.61904 | 9508 ft | 293 kts | 41° |
| 2026-04-21 22:14 | 56.54364 | 8.64284 | 9284 ft | 281 kts | 41° |
| 2026-04-21 22:14 | 56.55801 | 8.66590 | 9057 ft | 270 kts | 42° |
| 2026-04-21 22:14 | 56.57211 | 8.68855 | 8767 ft | 267 kts | 42° |
| 2026-04-21 22:15 | 56.58615 | 8.71113 | 8500 ft | 265 kts | 42° |
| 2026-04-21 22:15 | 56.60012 | 8.73363 | 8222 ft | 265 kts | 42° |
| 2026-04-21 22:15 | 56.61397 | 8.75595 | 7947 ft | 264 kts | 42° |
| 2026-04-21 22:15 | 56.62760 | 8.77793 | 7683 ft | 262 kts | 42° |
| 2026-04-21 22:16 | 56.64136 | 8.80016 | 7413 ft | 261 kts | 42° |
| 2026-04-21 22:16 | 56.65480 | 8.82190 | 7151 ft | 260 kts | 42° |
| 2026-04-21 22:16 | 56.66826 | 8.84370 | 6889 ft | 259 kts | 42° |
| 2026-04-21 22:16 | 56.68171 | 8.86551 | 6628 ft | 258 kts | 41° |
| 2026-04-21 22:17 | 56.69509 | 8.88723 | 6363 ft | 257 kts | 41° |
| 2026-04-21 22:17 | 56.70835 | 8.90878 | 6107 ft | 256 kts | 41° |
| 2026-04-21 22:17 | 56.72179 | 8.93062 | 5851 ft | 255 kts | 41° |
| 2026-04-21 22:17 | 56.73416 | 8.95073 | 5615 ft | 254 kts | 41° |
| 2026-04-21 22:18 | 56.74674 | 8.97120 | 5384 ft | 253 kts | 41° |
| 2026-04-21 22:18 | 56.75976 | 8.99243 | 5142 ft | 252 kts | 41° |
| 2026-04-21 22:18 | 56.77281 | 9.01370 | 4885 ft | 251 kts | 41° |
| 2026-04-21 22:18 | 56.78582 | 9.03494 | 4634 ft | 250 kts | 41° |
| 2026-04-21 22:19 | 56.79862 | 9.05588 | 4495 ft | 248 kts | 41° |
| 2026-04-21 22:19 | 56.81151 | 9.07696 | 4363 ft | 250 kts | 41° |
| 2026-04-21 22:19 | 56.82445 | 9.09817 | 4235 ft | 250 kts | 41° |
| 2026-04-21 22:19 | 56.83724 | 9.11914 | 4106 ft | 249 kts | 41° |
| 2026-04-21 22:20 | 56.85010 | 9.14026 | 3979 ft | 249 kts | 41° |
| 2026-04-21 22:20 | 56.86306 | 9.16154 | 3849 ft | 248 kts | 41° |
| 2026-04-21 22:20 | 56.87576 | 9.18240 | 3723 ft | 248 kts | 41° |
| 2026-04-21 22:20 | 56.88874 | 9.20375 | 3593 ft | 247 kts | 41° |
| 2026-04-21 22:21 | 56.90169 | 9.22508 | 3461 ft | 245 kts | 41° |
| 2026-04-21 22:21 | 56.91432 | 9.24590 | 3330 ft | 240 kts | 41° |
| 2026-04-21 22:21 | 56.92652 | 9.26605 | 3201 ft | 235 kts | 41° |
| 2026-04-21 22:21 | 56.93839 | 9.28567 | 3072 ft | 230 kts | 41° |
| 2026-04-21 22:22 | 56.95023 | 9.30524 | 2940 ft | 226 kts | 40° |
| 2026-04-21 22:22 | 56.96179 | 9.32437 | 2854 ft | 220 kts | 40° |
| 2026-04-21 22:22 | 56.97284 | 9.34267 | 2770 ft | 213 kts | 40° |
| 2026-04-21 22:22 | 56.98370 | 9.36066 | 2688 ft | 206 kts | 40° |
| 2026-04-21 22:23 | 56.99421 | 9.37809 | 2603 ft | 199 kts | 40° |
| 2026-04-21 22:23 | 57.00420 | 9.39464 | 2519 ft | 192 kts | 40° |
| 2026-04-21 22:23 | 57.01397 | 9.41088 | 2433 ft | 185 kts | 40° |
| 2026-04-21 22:23 | 57.02334 | 9.42644 | 2354 ft | 183 kts | 40° |
| 2026-04-21 22:24 | 57.03281 | 9.44219 | 2278 ft | 183 kts | 40° |
| 2026-04-21 22:24 | 57.04227 | 9.45793 | 2274 ft | 183 kts | 40° |
| 2026-04-21 22:24 | 57.05161 | 9.47348 | 2273 ft | 183 kts | 40° |
| 2026-04-21 22:24 | 57.06064 | 9.48854 | 2272 ft | 183 kts | 40° |
| 2026-04-21 22:25 | 57.06912 | 9.50565 | 2256 ft | 186 kts | 60° |
| 2026-04-21 22:25 | 57.07335 | 9.52842 | 2275 ft | 189 kts | 75° |
| 2026-04-21 22:25 | 57.07564 | 9.55170 | 2267 ft | 184 kts | 77° |
| 2026-04-21 22:25 | 57.07742 | 9.57444 | 2261 ft | 178 kts | 79° |
| 2026-04-21 22:26 | 57.07893 | 9.59718 | 2268 ft | 179 kts | 79° |
| 2026-04-21 22:26 | 57.08030 | 9.61930 | 2278 ft | 170 kts | 79° |
| 2026-04-21 22:26 | 57.08162 | 9.64102 | 2135 ft | 169 kts | 79° |
| 2026-04-21 22:26 | 57.08291 | 9.66203 | 1914 ft | 167 kts | 79° |
| 2026-04-21 22:27 | 57.08419 | 9.68263 | 1699 ft | 163 kts | 80° |
| 2026-04-21 22:27 | 57.08546 | 9.70295 | 1473 ft | 158 kts | 81° |
| 2026-04-21 22:27 | 57.08669 | 9.72252 | 1253 ft | 152 kts | 81° |
| 2026-04-21 22:27 | 57.08788 | 9.74131 | 1050 ft | 146 kts | 81° |
| 2026-04-21 22:28 | 57.08904 | 9.75962 | 833 ft | 142 kts | 82° |
| 2026-04-21 22:28 | 57.09014 | 9.77742 | 627 ft | 140 kts | 82° |
| 2026-04-21 22:28 | 57.09131 | 9.79514 | 466 ft | 140 kts | 82° |
| 2026-04-21 22:28 | 57.09245 | 9.81280 | 283 ft | 140 kts | 83° |
| 2026-04-21 22:29 | 57.09356 | 9.83051 | 94 ft | 139 kts | 83° |
| 2026-04-21 22:29 | 57.09461 | 9.84718 | 24 ft | 109 kts | 81° |
| 2026-04-21 22:29 | 57.09514 | 9.85583 | 25 ft | 26 kts | 84° |
| 2026-04-21 22:29 | 57.09484 | 9.85698 | 25 ft | 10 kts | 149° |
| 2026-04-21 22:30 | 57.09419 | 9.85781 | 25 ft | 12 kts | 145° |
| 2026-04-21 22:30 | 57.09347 | 9.85880 | 25 ft | 13 kts | 142° |
| 2026-04-21 22:30 | 57.09269 | 9.85988 | 25 ft | 14 kts | 143° |
| 2026-04-21 22:30 | 57.09184 | 9.86108 | 25 ft | 15 kts | 142° |
| 2026-04-21 22:31 | 57.09095 | 9.86234 | 25 ft | 16 kts | 142° |
| 2026-04-21 22:31 | 57.09000 | 9.86366 | 25 ft | 17 kts | 143° |
| 2026-04-21 22:31 | 57.08902 | 9.86507 | 25 ft | 18 kts | 142° |
| 2026-04-21 22:31 | 57.08801 | 9.86653 | 24 ft | 18 kts | 141° |
| 2026-04-21 22:32 | 57.08736 | 9.86748 | 24 ft | 7 kts | 141° |
| 2026-04-21 22:32 | 57.08707 | 9.86796 | 24 ft | 3 kts | 123° |
| 2026-04-21 22:32 | 57.08709 | 9.86852 | 24 ft | 5 kts | 70° |
| 2026-04-21 22:32 | 57.08723 | 9.86903 | 24 ft | 3 kts | 57° |
| 2026-04-21 22:33 | 57.08727 | 9.86914 | 24 ft | 0 kts | 56° |